<?xml version="1.0" encoding="UTF-8" standalone="no" ?>
<gpx xmlns="http://www.topografix.com/GPX/1/1" xmlns:xsi="http://www.w3.org/2001/XMLSchema-instance" xsi:schemaLocation="http://www.topografix.com/GPX/1/1 http://www.topografix.com/GPX/1/1/gpx.xsd" version="1.1" creator="VisuGPX - https://www.visugpx.com">
  <metadata>
    <name>Les 3 Termes</name>
    <desc><![CDATA[Balade vers la chapelle de Piaut en partant des 3 termes.]]></desc>
  </metadata>
  <trk>
    <name><![CDATA[2017-11-27 14:28:09]]></name>
    <trkseg>
      <trkpt lat="44.14034" lon="5.1326">
        <ele>453.4</ele>
        <time>2017-11-27T08:48:17Z</time>
      </trkpt>
      <trkpt lat="44.14033" lon="5.1326">
        <ele>453.88</ele>
        <time>2017-11-27T08:48:37Z</time>
      </trkpt>
      <trkpt lat="44.14033" lon="5.1326">
        <ele>453.88</ele>
        <time>2017-11-27T08:48:38Z</time>
      </trkpt>
      <trkpt lat="44.14034" lon="5.13262">
        <ele>453.88</ele>
        <time>2017-11-27T08:49:02Z</time>
      </trkpt>
      <trkpt lat="44.14039" lon="5.13264">
        <ele>452.92</ele>
        <time>2017-11-27T08:49:30Z</time>
      </trkpt>
      <trkpt lat="44.14054" lon="5.13267">
        <ele>452.92</ele>
        <time>2017-11-27T08:49:45Z</time>
      </trkpt>
      <trkpt lat="44.14065" lon="5.13273">
        <ele>452.92</ele>
        <time>2017-11-27T08:50:04Z</time>
      </trkpt>
      <trkpt lat="44.14077" lon="5.1328">
        <ele>452.44</ele>
        <time>2017-11-27T08:50:21Z</time>
      </trkpt>
      <trkpt lat="44.14084" lon="5.1329">
        <ele>452.44</ele>
        <time>2017-11-27T08:50:35Z</time>
      </trkpt>
      <trkpt lat="44.14096" lon="5.13305">
        <ele>451.96</ele>
        <time>2017-11-27T08:50:54Z</time>
      </trkpt>
      <trkpt lat="44.14105" lon="5.1332">
        <ele>450.52</ele>
        <time>2017-11-27T08:51:11Z</time>
      </trkpt>
      <trkpt lat="44.14114" lon="5.13341">
        <ele>450.52</ele>
        <time>2017-11-27T08:51:28Z</time>
      </trkpt>
      <trkpt lat="44.14122" lon="5.13355">
        <ele>451.96</ele>
        <time>2017-11-27T08:51:41Z</time>
      </trkpt>
      <trkpt lat="44.14123" lon="5.13359">
        <ele>452.44</ele>
        <time>2017-11-27T08:51:43Z</time>
      </trkpt>
      <trkpt lat="44.14124" lon="5.13363">
        <ele>453.4</ele>
        <time>2017-11-27T08:51:44Z</time>
      </trkpt>
      <trkpt lat="44.14131" lon="5.13375">
        <ele>452.44</ele>
        <time>2017-11-27T08:51:56Z</time>
      </trkpt>
      <trkpt lat="44.1414" lon="5.13395">
        <ele>453.88</ele>
        <time>2017-11-27T08:52:14Z</time>
      </trkpt>
      <trkpt lat="44.14149" lon="5.13418">
        <ele>454.36</ele>
        <time>2017-11-27T08:52:33Z</time>
      </trkpt>
      <trkpt lat="44.14156" lon="5.1343">
        <ele>454.84</ele>
        <time>2017-11-27T08:52:42Z</time>
      </trkpt>
      <trkpt lat="44.14173" lon="5.13448">
        <ele>454.36</ele>
        <time>2017-11-27T08:53:02Z</time>
      </trkpt>
      <trkpt lat="44.14179" lon="5.13452">
        <ele>454.84</ele>
        <time>2017-11-27T08:53:08Z</time>
      </trkpt>
      <trkpt lat="44.14198" lon="5.13461">
        <ele>456.28</ele>
        <time>2017-11-27T08:53:29Z</time>
      </trkpt>
      <trkpt lat="44.14214" lon="5.13477">
        <ele>457.72</ele>
        <time>2017-11-27T08:53:48Z</time>
      </trkpt>
      <trkpt lat="44.14228" lon="5.13487">
        <ele>458.21</ele>
        <time>2017-11-27T08:54:03Z</time>
      </trkpt>
      <trkpt lat="44.1424" lon="5.13493">
        <ele>459.65</ele>
        <time>2017-11-27T08:54:18Z</time>
      </trkpt>
      <trkpt lat="44.1426" lon="5.13497">
        <ele>460.13</ele>
        <time>2017-11-27T08:54:37Z</time>
      </trkpt>
      <trkpt lat="44.14276" lon="5.13494">
        <ele>461.57</ele>
        <time>2017-11-27T08:54:52Z</time>
      </trkpt>
      <trkpt lat="44.1429" lon="5.13496">
        <ele>461.57</ele>
        <time>2017-11-27T08:55:07Z</time>
      </trkpt>
      <trkpt lat="44.14305" lon="5.13496">
        <ele>461.57</ele>
        <time>2017-11-27T08:55:21Z</time>
      </trkpt>
      <trkpt lat="44.14319" lon="5.13498">
        <ele>461.57</ele>
        <time>2017-11-27T08:55:36Z</time>
      </trkpt>
      <trkpt lat="44.14338" lon="5.13509">
        <ele>461.57</ele>
        <time>2017-11-27T08:55:53Z</time>
      </trkpt>
      <trkpt lat="44.14353" lon="5.13512">
        <ele>463.01</ele>
        <time>2017-11-27T08:56:09Z</time>
      </trkpt>
      <trkpt lat="44.14362" lon="5.13514">
        <ele>463.01</ele>
        <time>2017-11-27T08:56:25Z</time>
      </trkpt>
      <trkpt lat="44.14364" lon="5.13514">
        <ele>460.61</ele>
        <time>2017-11-27T08:56:27Z</time>
      </trkpt>
      <trkpt lat="44.14365" lon="5.13515">
        <ele>463.97</ele>
        <time>2017-11-27T08:56:28Z</time>
      </trkpt>
      <trkpt lat="44.14375" lon="5.13521">
        <ele>462.05</ele>
        <time>2017-11-27T08:56:38Z</time>
      </trkpt>
      <trkpt lat="44.14394" lon="5.1353">
        <ele>462.05</ele>
        <time>2017-11-27T08:56:56Z</time>
      </trkpt>
      <trkpt lat="44.14398" lon="5.13535">
        <ele>463.49</ele>
        <time>2017-11-27T08:57:01Z</time>
      </trkpt>
      <trkpt lat="44.14409" lon="5.13542">
        <ele>465.9</ele>
        <time>2017-11-27T08:57:15Z</time>
      </trkpt>
      <trkpt lat="44.14411" lon="5.13543">
        <ele>463.01</ele>
        <time>2017-11-27T08:57:17Z</time>
      </trkpt>
      <trkpt lat="44.14413" lon="5.13546">
        <ele>463.01</ele>
        <time>2017-11-27T08:57:18Z</time>
      </trkpt>
      <trkpt lat="44.14422" lon="5.13562">
        <ele>464.45</ele>
        <time>2017-11-27T08:57:30Z</time>
      </trkpt>
      <trkpt lat="44.14429" lon="5.1358">
        <ele>465.9</ele>
        <time>2017-11-27T08:57:44Z</time>
      </trkpt>
      <trkpt lat="44.14426" lon="5.13604">
        <ele>466.86</ele>
        <time>2017-11-27T08:58:00Z</time>
      </trkpt>
      <trkpt lat="44.1442" lon="5.13622">
        <ele>467.82</ele>
        <time>2017-11-27T08:58:14Z</time>
      </trkpt>
      <trkpt lat="44.14412" lon="5.13634">
        <ele>467.82</ele>
        <time>2017-11-27T08:58:28Z</time>
      </trkpt>
      <trkpt lat="44.14402" lon="5.13652">
        <ele>469.26</ele>
        <time>2017-11-27T08:58:43Z</time>
      </trkpt>
      <trkpt lat="44.14388" lon="5.13674">
        <ele>470.7</ele>
        <time>2017-11-27T08:59:02Z</time>
      </trkpt>
      <trkpt lat="44.14386" lon="5.13685">
        <ele>472.63</ele>
        <time>2017-11-27T08:59:18Z</time>
      </trkpt>
      <trkpt lat="44.14384" lon="5.13687">
        <ele>471.66</ele>
        <time>2017-11-27T08:59:26Z</time>
      </trkpt>
      <trkpt lat="44.14384" lon="5.13689">
        <ele>471.66</ele>
        <time>2017-11-27T08:59:27Z</time>
      </trkpt>
      <trkpt lat="44.14376" lon="5.1371">
        <ele>473.11</ele>
        <time>2017-11-27T08:59:41Z</time>
      </trkpt>
      <trkpt lat="44.14375" lon="5.13716">
        <ele>472.63</ele>
        <time>2017-11-27T08:59:52Z</time>
      </trkpt>
      <trkpt lat="44.14372" lon="5.13739">
        <ele>474.07</ele>
        <time>2017-11-27T09:00:07Z</time>
      </trkpt>
      <trkpt lat="44.14382" lon="5.13753">
        <ele>475.51</ele>
        <time>2017-11-27T09:00:22Z</time>
      </trkpt>
      <trkpt lat="44.14397" lon="5.13767">
        <ele>476.95</ele>
        <time>2017-11-27T09:00:40Z</time>
      </trkpt>
      <trkpt lat="44.14402" lon="5.13771">
        <ele>477.91</ele>
        <time>2017-11-27T09:00:58Z</time>
      </trkpt>
      <trkpt lat="44.14402" lon="5.13771">
        <ele>476.47</ele>
        <time>2017-11-27T09:01:14Z</time>
      </trkpt>
      <trkpt lat="44.14403" lon="5.13769">
        <ele>476.47</ele>
        <time>2017-11-27T09:01:53Z</time>
      </trkpt>
      <trkpt lat="44.14402" lon="5.1377">
        <ele>475.99</ele>
        <time>2017-11-27T09:02:10Z</time>
      </trkpt>
      <trkpt lat="44.14402" lon="5.13769">
        <ele>477.43</ele>
        <time>2017-11-27T09:02:24Z</time>
      </trkpt>
      <trkpt lat="44.14402" lon="5.13769">
        <ele>476.95</ele>
        <time>2017-11-27T09:02:31Z</time>
      </trkpt>
      <trkpt lat="44.1441" lon="5.13776">
        <ele>478.39</ele>
        <time>2017-11-27T09:02:45Z</time>
      </trkpt>
      <trkpt lat="44.14416" lon="5.13779">
        <ele>479.35</ele>
        <time>2017-11-27T09:03:02Z</time>
      </trkpt>
      <trkpt lat="44.14418" lon="5.13779">
        <ele>479.35</ele>
        <time>2017-11-27T09:03:22Z</time>
      </trkpt>
      <trkpt lat="44.14419" lon="5.13778">
        <ele>479.35</ele>
        <time>2017-11-27T09:03:38Z</time>
      </trkpt>
      <trkpt lat="44.14418" lon="5.13779">
        <ele>479.35</ele>
        <time>2017-11-27T09:04:06Z</time>
      </trkpt>
      <trkpt lat="44.14417" lon="5.13779">
        <ele>479.35</ele>
        <time>2017-11-27T09:04:28Z</time>
      </trkpt>
      <trkpt lat="44.14416" lon="5.13779">
        <ele>479.35</ele>
        <time>2017-11-27T09:04:52Z</time>
      </trkpt>
      <trkpt lat="44.14422" lon="5.13784">
        <ele>479.84</ele>
        <time>2017-11-27T09:05:10Z</time>
      </trkpt>
      <trkpt lat="44.14432" lon="5.13794">
        <ele>480.8</ele>
        <time>2017-11-27T09:05:26Z</time>
      </trkpt>
      <trkpt lat="44.14446" lon="5.13807">
        <ele>482.72</ele>
        <time>2017-11-27T09:05:45Z</time>
      </trkpt>
      <trkpt lat="44.14458" lon="5.13818">
        <ele>485.12</ele>
        <time>2017-11-27T09:06:02Z</time>
      </trkpt>
      <trkpt lat="44.1447" lon="5.13818">
        <ele>487.05</ele>
        <time>2017-11-27T09:06:18Z</time>
      </trkpt>
      <trkpt lat="44.14469" lon="5.13813">
        <ele>487.53</ele>
        <time>2017-11-27T09:06:22Z</time>
      </trkpt>
      <trkpt lat="44.14465" lon="5.13786">
        <ele>488.49</ele>
        <time>2017-11-27T09:06:43Z</time>
      </trkpt>
      <trkpt lat="44.14463" lon="5.13761">
        <ele>489.93</ele>
        <time>2017-11-27T09:07:02Z</time>
      </trkpt>
      <trkpt lat="44.14464" lon="5.13746">
        <ele>490.89</ele>
        <time>2017-11-27T09:07:20Z</time>
      </trkpt>
      <trkpt lat="44.14467" lon="5.13746">
        <ele>491.37</ele>
        <time>2017-11-27T09:07:52Z</time>
      </trkpt>
      <trkpt lat="44.14469" lon="5.13747">
        <ele>491.37</ele>
        <time>2017-11-27T09:08:17Z</time>
      </trkpt>
      <trkpt lat="44.14468" lon="5.13742">
        <ele>491.85</ele>
        <time>2017-11-27T09:08:40Z</time>
      </trkpt>
      <trkpt lat="44.14473" lon="5.13729">
        <ele>492.33</ele>
        <time>2017-11-27T09:08:52Z</time>
      </trkpt>
      <trkpt lat="44.14483" lon="5.13714">
        <ele>494.26</ele>
        <time>2017-11-27T09:09:08Z</time>
      </trkpt>
      <trkpt lat="44.14495" lon="5.137">
        <ele>496.18</ele>
        <time>2017-11-27T09:09:24Z</time>
      </trkpt>
      <trkpt lat="44.14508" lon="5.13685">
        <ele>498.1</ele>
        <time>2017-11-27T09:09:43Z</time>
      </trkpt>
      <trkpt lat="44.14523" lon="5.1367">
        <ele>500.02</ele>
        <time>2017-11-27T09:10:03Z</time>
      </trkpt>
      <trkpt lat="44.14524" lon="5.13669">
        <ele>500.02</ele>
        <time>2017-11-27T09:10:04Z</time>
      </trkpt>
      <trkpt lat="44.14539" lon="5.13658">
        <ele>501.46</ele>
        <time>2017-11-27T09:10:21Z</time>
      </trkpt>
      <trkpt lat="44.14554" lon="5.13669">
        <ele>503.39</ele>
        <time>2017-11-27T09:10:41Z</time>
      </trkpt>
      <trkpt lat="44.14556" lon="5.13691">
        <ele>505.79</ele>
        <time>2017-11-27T09:10:58Z</time>
      </trkpt>
      <trkpt lat="44.14557" lon="5.13715">
        <ele>507.71</ele>
        <time>2017-11-27T09:11:18Z</time>
      </trkpt>
      <trkpt lat="44.14558" lon="5.13731">
        <ele>508.19</ele>
        <time>2017-11-27T09:11:36Z</time>
      </trkpt>
      <trkpt lat="44.14569" lon="5.13735">
        <ele>509.64</ele>
        <time>2017-11-27T09:11:51Z</time>
      </trkpt>
      <trkpt lat="44.14582" lon="5.13739">
        <ele>511.08</ele>
        <time>2017-11-27T09:12:07Z</time>
      </trkpt>
      <trkpt lat="44.14589" lon="5.13751">
        <ele>513</ele>
        <time>2017-11-27T09:12:21Z</time>
      </trkpt>
      <trkpt lat="44.14597" lon="5.13761">
        <ele>514.92</ele>
        <time>2017-11-27T09:12:34Z</time>
      </trkpt>
      <trkpt lat="44.14609" lon="5.1377">
        <ele>517.33</ele>
        <time>2017-11-27T09:12:51Z</time>
      </trkpt>
      <trkpt lat="44.14618" lon="5.13778">
        <ele>518.77</ele>
        <time>2017-11-27T09:13:07Z</time>
      </trkpt>
      <trkpt lat="44.14626" lon="5.13788">
        <ele>520.21</ele>
        <time>2017-11-27T09:13:22Z</time>
      </trkpt>
      <trkpt lat="44.14636" lon="5.13794">
        <ele>521.17</ele>
        <time>2017-11-27T09:13:37Z</time>
      </trkpt>
      <trkpt lat="44.14648" lon="5.13804">
        <ele>521.65</ele>
        <time>2017-11-27T09:13:53Z</time>
      </trkpt>
      <trkpt lat="44.14661" lon="5.13814">
        <ele>523.58</ele>
        <time>2017-11-27T09:14:10Z</time>
      </trkpt>
      <trkpt lat="44.14663" lon="5.13827">
        <ele>524.54</ele>
        <time>2017-11-27T09:14:25Z</time>
      </trkpt>
      <trkpt lat="44.14673" lon="5.13835">
        <ele>525.98</ele>
        <time>2017-11-27T09:14:40Z</time>
      </trkpt>
      <trkpt lat="44.14679" lon="5.13846">
        <ele>526.94</ele>
        <time>2017-11-27T09:14:53Z</time>
      </trkpt>
      <trkpt lat="44.14687" lon="5.13863">
        <ele>527.9</ele>
        <time>2017-11-27T09:15:09Z</time>
      </trkpt>
      <trkpt lat="44.14694" lon="5.13878">
        <ele>528.38</ele>
        <time>2017-11-27T09:15:24Z</time>
      </trkpt>
      <trkpt lat="44.14702" lon="5.13891">
        <ele>528.38</ele>
        <time>2017-11-27T09:15:40Z</time>
      </trkpt>
      <trkpt lat="44.14708" lon="5.13908">
        <ele>529.82</ele>
        <time>2017-11-27T09:15:56Z</time>
      </trkpt>
      <trkpt lat="44.14717" lon="5.13925">
        <ele>530.3</ele>
        <time>2017-11-27T09:16:14Z</time>
      </trkpt>
      <trkpt lat="44.14719" lon="5.13928">
        <ele>530.79</ele>
        <time>2017-11-27T09:16:28Z</time>
      </trkpt>
      <trkpt lat="44.14718" lon="5.13928">
        <ele>530.79</ele>
        <time>2017-11-27T09:16:50Z</time>
      </trkpt>
      <trkpt lat="44.14717" lon="5.13928">
        <ele>527.42</ele>
        <time>2017-11-27T09:17:00Z</time>
      </trkpt>
      <trkpt lat="44.14717" lon="5.13928">
        <ele>534.15</ele>
        <time>2017-11-27T09:17:01Z</time>
      </trkpt>
      <trkpt lat="44.14716" lon="5.13927">
        <ele>534.15</ele>
        <time>2017-11-27T09:17:02Z</time>
      </trkpt>
      <trkpt lat="44.14716" lon="5.13928">
        <ele>530.79</ele>
        <time>2017-11-27T09:17:03Z</time>
      </trkpt>
      <trkpt lat="44.14717" lon="5.1393">
        <ele>530.3</ele>
        <time>2017-11-27T09:17:26Z</time>
      </trkpt>
      <trkpt lat="44.14719" lon="5.13929">
        <ele>530.3</ele>
        <time>2017-11-27T09:17:46Z</time>
      </trkpt>
      <trkpt lat="44.14717" lon="5.1393">
        <ele>530.3</ele>
        <time>2017-11-27T09:18:13Z</time>
      </trkpt>
      <trkpt lat="44.14716" lon="5.13931">
        <ele>530.3</ele>
        <time>2017-11-27T09:18:31Z</time>
      </trkpt>
      <trkpt lat="44.14722" lon="5.13929">
        <ele>530.3</ele>
        <time>2017-11-27T09:18:51Z</time>
      </trkpt>
      <trkpt lat="44.14731" lon="5.13939">
        <ele>529.34</ele>
        <time>2017-11-27T09:19:07Z</time>
      </trkpt>
      <trkpt lat="44.14736" lon="5.13952">
        <ele>528.38</ele>
        <time>2017-11-27T09:19:21Z</time>
      </trkpt>
      <trkpt lat="44.14742" lon="5.13964">
        <ele>526.94</ele>
        <time>2017-11-27T09:19:35Z</time>
      </trkpt>
      <trkpt lat="44.14744" lon="5.13979">
        <ele>528.38</ele>
        <time>2017-11-27T09:19:49Z</time>
      </trkpt>
      <trkpt lat="44.14758" lon="5.13998">
        <ele>530.79</ele>
        <time>2017-11-27T09:20:06Z</time>
      </trkpt>
      <trkpt lat="44.14768" lon="5.1401">
        <ele>531.27</ele>
        <time>2017-11-27T09:20:20Z</time>
      </trkpt>
      <trkpt lat="44.1477" lon="5.14024">
        <ele>532.71</ele>
        <time>2017-11-27T09:20:36Z</time>
      </trkpt>
      <trkpt lat="44.14769" lon="5.14034">
        <ele>534.15</ele>
        <time>2017-11-27T09:20:48Z</time>
      </trkpt>
      <trkpt lat="44.1477" lon="5.14046">
        <ele>535.11</ele>
        <time>2017-11-27T09:21:03Z</time>
      </trkpt>
      <trkpt lat="44.14771" lon="5.14052">
        <ele>537.51</ele>
        <time>2017-11-27T09:21:17Z</time>
      </trkpt>
      <trkpt lat="44.14768" lon="5.14061">
        <ele>538.96</ele>
        <time>2017-11-27T09:21:30Z</time>
      </trkpt>
      <trkpt lat="44.14768" lon="5.1407">
        <ele>539.92</ele>
        <time>2017-11-27T09:21:43Z</time>
      </trkpt>
      <trkpt lat="44.1477" lon="5.14083">
        <ele>541.84</ele>
        <time>2017-11-27T09:21:56Z</time>
      </trkpt>
      <trkpt lat="44.14776" lon="5.14095">
        <ele>543.28</ele>
        <time>2017-11-27T09:22:11Z</time>
      </trkpt>
      <trkpt lat="44.14783" lon="5.14103">
        <ele>544.72</ele>
        <time>2017-11-27T09:22:26Z</time>
      </trkpt>
      <trkpt lat="44.14787" lon="5.14113">
        <ele>546.65</ele>
        <time>2017-11-27T09:22:40Z</time>
      </trkpt>
      <trkpt lat="44.14788" lon="5.14119">
        <ele>547.61</ele>
        <time>2017-11-27T09:22:57Z</time>
      </trkpt>
      <trkpt lat="44.14791" lon="5.14128">
        <ele>548.57</ele>
        <time>2017-11-27T09:23:17Z</time>
      </trkpt>
      <trkpt lat="44.14798" lon="5.14135">
        <ele>550.49</ele>
        <time>2017-11-27T09:23:31Z</time>
      </trkpt>
      <trkpt lat="44.14802" lon="5.14147">
        <ele>552.41</ele>
        <time>2017-11-27T09:23:46Z</time>
      </trkpt>
      <trkpt lat="44.14807" lon="5.14162">
        <ele>554.34</ele>
        <time>2017-11-27T09:24:02Z</time>
      </trkpt>
      <trkpt lat="44.14813" lon="5.14174">
        <ele>555.3</ele>
        <time>2017-11-27T09:24:17Z</time>
      </trkpt>
      <trkpt lat="44.1482" lon="5.14189">
        <ele>556.74</ele>
        <time>2017-11-27T09:24:33Z</time>
      </trkpt>
      <trkpt lat="44.14826" lon="5.14202">
        <ele>558.18</ele>
        <time>2017-11-27T09:24:49Z</time>
      </trkpt>
      <trkpt lat="44.14831" lon="5.14218">
        <ele>558.66</ele>
        <time>2017-11-27T09:25:05Z</time>
      </trkpt>
      <trkpt lat="44.14837" lon="5.14231">
        <ele>559.14</ele>
        <time>2017-11-27T09:25:19Z</time>
      </trkpt>
      <trkpt lat="44.14842" lon="5.14247">
        <ele>559.14</ele>
        <time>2017-11-27T09:25:33Z</time>
      </trkpt>
      <trkpt lat="44.14847" lon="5.14265">
        <ele>559.62</ele>
        <time>2017-11-27T09:25:48Z</time>
      </trkpt>
      <trkpt lat="44.14851" lon="5.14286">
        <ele>561.07</ele>
        <time>2017-11-27T09:26:05Z</time>
      </trkpt>
      <trkpt lat="44.14858" lon="5.14302">
        <ele>562.51</ele>
        <time>2017-11-27T09:26:19Z</time>
      </trkpt>
      <trkpt lat="44.14863" lon="5.14323">
        <ele>562.99</ele>
        <time>2017-11-27T09:26:36Z</time>
      </trkpt>
      <trkpt lat="44.14868" lon="5.1434">
        <ele>564.43</ele>
        <time>2017-11-27T09:26:53Z</time>
      </trkpt>
      <trkpt lat="44.14875" lon="5.14356">
        <ele>565.87</ele>
        <time>2017-11-27T09:27:09Z</time>
      </trkpt>
      <trkpt lat="44.14879" lon="5.14368">
        <ele>566.83</ele>
        <time>2017-11-27T09:27:24Z</time>
      </trkpt>
      <trkpt lat="44.14885" lon="5.14383">
        <ele>567.8</ele>
        <time>2017-11-27T09:27:40Z</time>
      </trkpt>
      <trkpt lat="44.14892" lon="5.14394">
        <ele>569.72</ele>
        <time>2017-11-27T09:27:56Z</time>
      </trkpt>
      <trkpt lat="44.14897" lon="5.14405">
        <ele>571.16</ele>
        <time>2017-11-27T09:28:10Z</time>
      </trkpt>
      <trkpt lat="44.14905" lon="5.14417">
        <ele>571.64</ele>
        <time>2017-11-27T09:28:25Z</time>
      </trkpt>
      <trkpt lat="44.14913" lon="5.14431">
        <ele>572.12</ele>
        <time>2017-11-27T09:28:42Z</time>
      </trkpt>
      <trkpt lat="44.14917" lon="5.14438">
        <ele>574.04</ele>
        <time>2017-11-27T09:28:56Z</time>
      </trkpt>
      <trkpt lat="44.14919" lon="5.14442">
        <ele>574.04</ele>
        <time>2017-11-27T09:29:12Z</time>
      </trkpt>
      <trkpt lat="44.14921" lon="5.14442">
        <ele>574.53</ele>
        <time>2017-11-27T09:29:23Z</time>
      </trkpt>
      <trkpt lat="44.14921" lon="5.14443">
        <ele>575.01</ele>
        <time>2017-11-27T09:29:42Z</time>
      </trkpt>
      <trkpt lat="44.1492" lon="5.14443">
        <ele>574.53</ele>
        <time>2017-11-27T09:30:05Z</time>
      </trkpt>
      <trkpt lat="44.1492" lon="5.14442">
        <ele>573.08</ele>
        <time>2017-11-27T09:30:25Z</time>
      </trkpt>
      <trkpt lat="44.1492" lon="5.14441">
        <ele>573.08</ele>
        <time>2017-11-27T09:31:00Z</time>
      </trkpt>
      <trkpt lat="44.14919" lon="5.14442">
        <ele>574.04</ele>
        <time>2017-11-27T09:31:23Z</time>
      </trkpt>
      <trkpt lat="44.14918" lon="5.14444">
        <ele>574.04</ele>
        <time>2017-11-27T09:32:08Z</time>
      </trkpt>
      <trkpt lat="44.14919" lon="5.14443">
        <ele>574.04</ele>
        <time>2017-11-27T09:32:47Z</time>
      </trkpt>
      <trkpt lat="44.14919" lon="5.14443">
        <ele>574.53</ele>
        <time>2017-11-27T09:33:27Z</time>
      </trkpt>
      <trkpt lat="44.14919" lon="5.14443">
        <ele>574.53</ele>
        <time>2017-11-27T09:34:12Z</time>
      </trkpt>
      <trkpt lat="44.14918" lon="5.14441">
        <ele>574.53</ele>
        <time>2017-11-27T09:34:52Z</time>
      </trkpt>
      <trkpt lat="44.14919" lon="5.14443">
        <ele>574.53</ele>
        <time>2017-11-27T09:35:33Z</time>
      </trkpt>
      <trkpt lat="44.14919" lon="5.14442">
        <ele>575.01</ele>
        <time>2017-11-27T09:35:59Z</time>
      </trkpt>
      <trkpt lat="44.14919" lon="5.14442">
        <ele>575.01</ele>
        <time>2017-11-27T09:36:39Z</time>
      </trkpt>
      <trkpt lat="44.14919" lon="5.14442">
        <ele>575.49</ele>
        <time>2017-11-27T09:37:25Z</time>
      </trkpt>
      <trkpt lat="44.1492" lon="5.14442">
        <ele>574.04</ele>
        <time>2017-11-27T09:38:14Z</time>
      </trkpt>
      <trkpt lat="44.14921" lon="5.14441">
        <ele>575.49</ele>
        <time>2017-11-27T09:39:03Z</time>
      </trkpt>
      <trkpt lat="44.14921" lon="5.14442">
        <ele>576.45</ele>
        <time>2017-11-27T09:39:44Z</time>
      </trkpt>
      <trkpt lat="44.14921" lon="5.14443">
        <ele>576.45</ele>
        <time>2017-11-27T09:40:10Z</time>
      </trkpt>
      <trkpt lat="44.14921" lon="5.14443">
        <ele>575.49</ele>
        <time>2017-11-27T09:40:37Z</time>
      </trkpt>
      <trkpt lat="44.14922" lon="5.14441">
        <ele>576.45</ele>
        <time>2017-11-27T09:40:53Z</time>
      </trkpt>
      <trkpt lat="44.14922" lon="5.14441">
        <ele>572.12</ele>
        <time>2017-11-27T09:40:56Z</time>
      </trkpt>
      <trkpt lat="44.14922" lon="5.1444">
        <ele>578.37</ele>
        <time>2017-11-27T09:40:57Z</time>
      </trkpt>
      <trkpt lat="44.14922" lon="5.1444">
        <ele>578.37</ele>
        <time>2017-11-27T09:40:58Z</time>
      </trkpt>
      <trkpt lat="44.14922" lon="5.1444">
        <ele>576.45</ele>
        <time>2017-11-27T09:41:00Z</time>
      </trkpt>
      <trkpt lat="44.14925" lon="5.14441">
        <ele>576.45</ele>
        <time>2017-11-27T09:41:20Z</time>
      </trkpt>
      <trkpt lat="44.14925" lon="5.14441">
        <ele>577.41</ele>
        <time>2017-11-27T09:41:30Z</time>
      </trkpt>
      <trkpt lat="44.14926" lon="5.14443">
        <ele>577.89</ele>
        <time>2017-11-27T09:42:10Z</time>
      </trkpt>
      <trkpt lat="44.14927" lon="5.14443">
        <ele>577.89</ele>
        <time>2017-11-27T09:42:39Z</time>
      </trkpt>
      <trkpt lat="44.14925" lon="5.14444">
        <ele>577.89</ele>
        <time>2017-11-27T09:43:09Z</time>
      </trkpt>
      <trkpt lat="44.14924" lon="5.14444">
        <ele>577.89</ele>
        <time>2017-11-27T09:43:44Z</time>
      </trkpt>
      <trkpt lat="44.14927" lon="5.14445">
        <ele>577.89</ele>
        <time>2017-11-27T09:44:03Z</time>
      </trkpt>
      <trkpt lat="44.14928" lon="5.14449">
        <ele>577.89</ele>
        <time>2017-11-27T09:44:34Z</time>
      </trkpt>
      <trkpt lat="44.14934" lon="5.14457">
        <ele>578.85</ele>
        <time>2017-11-27T09:44:48Z</time>
      </trkpt>
      <trkpt lat="44.1494" lon="5.14466">
        <ele>579.81</ele>
        <time>2017-11-27T09:45:02Z</time>
      </trkpt>
      <trkpt lat="44.14945" lon="5.14473">
        <ele>581.25</ele>
        <time>2017-11-27T09:45:16Z</time>
      </trkpt>
      <trkpt lat="44.14952" lon="5.14483">
        <ele>582.22</ele>
        <time>2017-11-27T09:45:31Z</time>
      </trkpt>
      <trkpt lat="44.14958" lon="5.14495">
        <ele>582.7</ele>
        <time>2017-11-27T09:45:45Z</time>
      </trkpt>
      <trkpt lat="44.14961" lon="5.14503">
        <ele>583.18</ele>
        <time>2017-11-27T09:45:59Z</time>
      </trkpt>
      <trkpt lat="44.14966" lon="5.1451">
        <ele>583.66</ele>
        <time>2017-11-27T09:46:11Z</time>
      </trkpt>
      <trkpt lat="44.1497" lon="5.14517">
        <ele>584.14</ele>
        <time>2017-11-27T09:46:25Z</time>
      </trkpt>
      <trkpt lat="44.14975" lon="5.14525">
        <ele>587.02</ele>
        <time>2017-11-27T09:46:40Z</time>
      </trkpt>
      <trkpt lat="44.14981" lon="5.14538">
        <ele>588.46</ele>
        <time>2017-11-27T09:46:56Z</time>
      </trkpt>
      <trkpt lat="44.1499" lon="5.14553">
        <ele>589.91</ele>
        <time>2017-11-27T09:47:14Z</time>
      </trkpt>
      <trkpt lat="44.14995" lon="5.14567">
        <ele>588.46</ele>
        <time>2017-11-27T09:47:28Z</time>
      </trkpt>
      <trkpt lat="44.15003" lon="5.14579">
        <ele>587.98</ele>
        <time>2017-11-27T09:47:44Z</time>
      </trkpt>
      <trkpt lat="44.15006" lon="5.14589">
        <ele>586.54</ele>
        <time>2017-11-27T09:47:58Z</time>
      </trkpt>
      <trkpt lat="44.15012" lon="5.14597">
        <ele>586.06</ele>
        <time>2017-11-27T09:48:13Z</time>
      </trkpt>
      <trkpt lat="44.15018" lon="5.1461">
        <ele>585.1</ele>
        <time>2017-11-27T09:48:29Z</time>
      </trkpt>
      <trkpt lat="44.15026" lon="5.1462">
        <ele>584.62</ele>
        <time>2017-11-27T09:48:44Z</time>
      </trkpt>
      <trkpt lat="44.15032" lon="5.14627">
        <ele>584.14</ele>
        <time>2017-11-27T09:48:57Z</time>
      </trkpt>
      <trkpt lat="44.15037" lon="5.14635">
        <ele>584.14</ele>
        <time>2017-11-27T09:49:13Z</time>
      </trkpt>
      <trkpt lat="44.15038" lon="5.14636">
        <ele>585.1</ele>
        <time>2017-11-27T09:49:16Z</time>
      </trkpt>
      <trkpt lat="44.1504" lon="5.14648">
        <ele>585.1</ele>
        <time>2017-11-27T09:49:30Z</time>
      </trkpt>
      <trkpt lat="44.15048" lon="5.14655">
        <ele>585.58</ele>
        <time>2017-11-27T09:49:45Z</time>
      </trkpt>
      <trkpt lat="44.15054" lon="5.14663">
        <ele>587.5</ele>
        <time>2017-11-27T09:49:58Z</time>
      </trkpt>
      <trkpt lat="44.15061" lon="5.14673">
        <ele>589.91</ele>
        <time>2017-11-27T09:50:16Z</time>
      </trkpt>
      <trkpt lat="44.15067" lon="5.14683">
        <ele>591.35</ele>
        <time>2017-11-27T09:50:32Z</time>
      </trkpt>
      <trkpt lat="44.15073" lon="5.14688">
        <ele>593.27</ele>
        <time>2017-11-27T09:50:48Z</time>
      </trkpt>
      <trkpt lat="44.15077" lon="5.14694">
        <ele>596.15</ele>
        <time>2017-11-27T09:51:03Z</time>
      </trkpt>
      <trkpt lat="44.1508" lon="5.14701">
        <ele>597.12</ele>
        <time>2017-11-27T09:51:17Z</time>
      </trkpt>
      <trkpt lat="44.15083" lon="5.14711">
        <ele>599.04</ele>
        <time>2017-11-27T09:51:32Z</time>
      </trkpt>
      <trkpt lat="44.15091" lon="5.14718">
        <ele>599.04</ele>
        <time>2017-11-27T09:51:47Z</time>
      </trkpt>
      <trkpt lat="44.15099" lon="5.14729">
        <ele>599.52</ele>
        <time>2017-11-27T09:52:02Z</time>
      </trkpt>
      <trkpt lat="44.15104" lon="5.14741">
        <ele>600</ele>
        <time>2017-11-27T09:52:19Z</time>
      </trkpt>
      <trkpt lat="44.15109" lon="5.14756">
        <ele>602.88</ele>
        <time>2017-11-27T09:52:35Z</time>
      </trkpt>
      <trkpt lat="44.15111" lon="5.14772">
        <ele>604.33</ele>
        <time>2017-11-27T09:52:51Z</time>
      </trkpt>
      <trkpt lat="44.15114" lon="5.14791">
        <ele>606.25</ele>
        <time>2017-11-27T09:53:10Z</time>
      </trkpt>
      <trkpt lat="44.15117" lon="5.14807">
        <ele>607.69</ele>
        <time>2017-11-27T09:53:25Z</time>
      </trkpt>
      <trkpt lat="44.15124" lon="5.14822">
        <ele>609.13</ele>
        <time>2017-11-27T09:53:40Z</time>
      </trkpt>
      <trkpt lat="44.15131" lon="5.14838">
        <ele>609.13</ele>
        <time>2017-11-27T09:53:57Z</time>
      </trkpt>
      <trkpt lat="44.15141" lon="5.1486">
        <ele>609.13</ele>
        <time>2017-11-27T09:54:17Z</time>
      </trkpt>
      <trkpt lat="44.15145" lon="5.14871">
        <ele>609.13</ele>
        <time>2017-11-27T09:54:29Z</time>
      </trkpt>
      <trkpt lat="44.15149" lon="5.1488">
        <ele>609.13</ele>
        <time>2017-11-27T09:54:38Z</time>
      </trkpt>
      <trkpt lat="44.15156" lon="5.14894">
        <ele>609.61</ele>
        <time>2017-11-27T09:54:53Z</time>
      </trkpt>
      <trkpt lat="44.15164" lon="5.1491">
        <ele>610.09</ele>
        <time>2017-11-27T09:55:11Z</time>
      </trkpt>
      <trkpt lat="44.1517" lon="5.14921">
        <ele>611.54</ele>
        <time>2017-11-27T09:55:27Z</time>
      </trkpt>
      <trkpt lat="44.15169" lon="5.14923">
        <ele>611.54</ele>
        <time>2017-11-27T09:55:42Z</time>
      </trkpt>
      <trkpt lat="44.15171" lon="5.14923">
        <ele>612.02</ele>
        <time>2017-11-27T09:56:10Z</time>
      </trkpt>
      <trkpt lat="44.15171" lon="5.14922">
        <ele>612.02</ele>
        <time>2017-11-27T09:56:39Z</time>
      </trkpt>
      <trkpt lat="44.15171" lon="5.1492">
        <ele>612.02</ele>
        <time>2017-11-27T09:57:05Z</time>
      </trkpt>
      <trkpt lat="44.1517" lon="5.1492">
        <ele>610.09</ele>
        <time>2017-11-27T09:57:15Z</time>
      </trkpt>
      <trkpt lat="44.15171" lon="5.14921">
        <ele>611.54</ele>
        <time>2017-11-27T09:57:40Z</time>
      </trkpt>
      <trkpt lat="44.1517" lon="5.14922">
        <ele>611.54</ele>
        <time>2017-11-27T09:58:06Z</time>
      </trkpt>
      <trkpt lat="44.15169" lon="5.14922">
        <ele>611.06</ele>
        <time>2017-11-27T09:58:26Z</time>
      </trkpt>
      <trkpt lat="44.1517" lon="5.14923">
        <ele>611.06</ele>
        <time>2017-11-27T09:58:42Z</time>
      </trkpt>
      <trkpt lat="44.15174" lon="5.14929">
        <ele>611.06</ele>
        <time>2017-11-27T09:58:58Z</time>
      </trkpt>
      <trkpt lat="44.15175" lon="5.14933">
        <ele>612.5</ele>
        <time>2017-11-27T09:59:04Z</time>
      </trkpt>
      <trkpt lat="44.15178" lon="5.14942">
        <ele>613.94</ele>
        <time>2017-11-27T09:59:18Z</time>
      </trkpt>
      <trkpt lat="44.15183" lon="5.14949">
        <ele>616.34</ele>
        <time>2017-11-27T09:59:32Z</time>
      </trkpt>
      <trkpt lat="44.1519" lon="5.1496">
        <ele>618.75</ele>
        <time>2017-11-27T09:59:48Z</time>
      </trkpt>
      <trkpt lat="44.15195" lon="5.14971">
        <ele>620.19</ele>
        <time>2017-11-27T10:00:02Z</time>
      </trkpt>
      <trkpt lat="44.152" lon="5.1498">
        <ele>621.15</ele>
        <time>2017-11-27T10:00:18Z</time>
      </trkpt>
      <trkpt lat="44.15208" lon="5.14988">
        <ele>623.07</ele>
        <time>2017-11-27T10:00:34Z</time>
      </trkpt>
      <trkpt lat="44.15214" lon="5.14989">
        <ele>624.03</ele>
        <time>2017-11-27T10:00:49Z</time>
      </trkpt>
      <trkpt lat="44.15215" lon="5.1499">
        <ele>622.59</ele>
        <time>2017-11-27T10:00:51Z</time>
      </trkpt>
      <trkpt lat="44.15217" lon="5.14991">
        <ele>622.59</ele>
        <time>2017-11-27T10:01:08Z</time>
      </trkpt>
      <trkpt lat="44.15227" lon="5.14993">
        <ele>622.11</ele>
        <time>2017-11-27T10:01:23Z</time>
      </trkpt>
      <trkpt lat="44.15233" lon="5.14997">
        <ele>621.63</ele>
        <time>2017-11-27T10:01:36Z</time>
      </trkpt>
      <trkpt lat="44.15239" lon="5.14999">
        <ele>621.63</ele>
        <time>2017-11-27T10:01:49Z</time>
      </trkpt>
      <trkpt lat="44.15251" lon="5.15003">
        <ele>620.67</ele>
        <time>2017-11-27T10:02:05Z</time>
      </trkpt>
      <trkpt lat="44.15261" lon="5.15006">
        <ele>620.19</ele>
        <time>2017-11-27T10:02:19Z</time>
      </trkpt>
      <trkpt lat="44.15268" lon="5.15011">
        <ele>619.23</ele>
        <time>2017-11-27T10:02:34Z</time>
      </trkpt>
      <trkpt lat="44.15274" lon="5.15016">
        <ele>617.78</ele>
        <time>2017-11-27T10:02:47Z</time>
      </trkpt>
      <trkpt lat="44.15278" lon="5.15019">
        <ele>616.34</ele>
        <time>2017-11-27T10:03:00Z</time>
      </trkpt>
      <trkpt lat="44.15278" lon="5.15019">
        <ele>616.82</ele>
        <time>2017-11-27T10:03:23Z</time>
      </trkpt>
      <trkpt lat="44.15279" lon="5.15018">
        <ele>616.82</ele>
        <time>2017-11-27T10:03:49Z</time>
      </trkpt>
      <trkpt lat="44.15284" lon="5.15017">
        <ele>614.42</ele>
        <time>2017-11-27T10:04:04Z</time>
      </trkpt>
      <trkpt lat="44.15291" lon="5.15016">
        <ele>612.5</ele>
        <time>2017-11-27T10:04:21Z</time>
      </trkpt>
      <trkpt lat="44.15302" lon="5.15017">
        <ele>609.61</ele>
        <time>2017-11-27T10:04:41Z</time>
      </trkpt>
      <trkpt lat="44.15313" lon="5.15032">
        <ele>609.13</ele>
        <time>2017-11-27T10:04:57Z</time>
      </trkpt>
      <trkpt lat="44.15318" lon="5.15054">
        <ele>610.09</ele>
        <time>2017-11-27T10:05:16Z</time>
      </trkpt>
      <trkpt lat="44.15322" lon="5.15076">
        <ele>611.06</ele>
        <time>2017-11-27T10:05:33Z</time>
      </trkpt>
      <trkpt lat="44.15327" lon="5.15099">
        <ele>611.54</ele>
        <time>2017-11-27T10:05:51Z</time>
      </trkpt>
      <trkpt lat="44.15331" lon="5.15109">
        <ele>612.5</ele>
        <time>2017-11-27T10:06:06Z</time>
      </trkpt>
      <trkpt lat="44.15333" lon="5.15117">
        <ele>613.46</ele>
        <time>2017-11-27T10:06:23Z</time>
      </trkpt>
      <trkpt lat="44.1534" lon="5.15131">
        <ele>614.42</ele>
        <time>2017-11-27T10:06:39Z</time>
      </trkpt>
      <trkpt lat="44.15345" lon="5.15142">
        <ele>615.38</ele>
        <time>2017-11-27T10:06:54Z</time>
      </trkpt>
      <trkpt lat="44.1535" lon="5.15155">
        <ele>615.86</ele>
        <time>2017-11-27T10:07:09Z</time>
      </trkpt>
      <trkpt lat="44.1535" lon="5.15154">
        <ele>615.86</ele>
        <time>2017-11-27T10:07:28Z</time>
      </trkpt>
      <trkpt lat="44.15351" lon="5.15154">
        <ele>615.86</ele>
        <time>2017-11-27T10:08:04Z</time>
      </trkpt>
      <trkpt lat="44.15351" lon="5.15155">
        <ele>615.86</ele>
        <time>2017-11-27T10:08:24Z</time>
      </trkpt>
      <trkpt lat="44.15351" lon="5.15156">
        <ele>616.34</ele>
        <time>2017-11-27T10:08:50Z</time>
      </trkpt>
      <trkpt lat="44.15353" lon="5.15158">
        <ele>616.34</ele>
        <time>2017-11-27T10:09:12Z</time>
      </trkpt>
      <trkpt lat="44.1536" lon="5.1517">
        <ele>617.3</ele>
        <time>2017-11-27T10:09:28Z</time>
      </trkpt>
      <trkpt lat="44.1537" lon="5.15183">
        <ele>617.78</ele>
        <time>2017-11-27T10:09:45Z</time>
      </trkpt>
      <trkpt lat="44.1538" lon="5.15199">
        <ele>618.26</ele>
        <time>2017-11-27T10:10:02Z</time>
      </trkpt>
      <trkpt lat="44.15393" lon="5.15203">
        <ele>618.75</ele>
        <time>2017-11-27T10:10:17Z</time>
      </trkpt>
      <trkpt lat="44.1541" lon="5.15198">
        <ele>619.23</ele>
        <time>2017-11-27T10:10:35Z</time>
      </trkpt>
      <trkpt lat="44.1542" lon="5.15197">
        <ele>620.19</ele>
        <time>2017-11-27T10:10:49Z</time>
      </trkpt>
      <trkpt lat="44.15431" lon="5.15195">
        <ele>621.63</ele>
        <time>2017-11-27T10:11:05Z</time>
      </trkpt>
      <trkpt lat="44.15438" lon="5.15193">
        <ele>622.11</ele>
        <time>2017-11-27T10:11:17Z</time>
      </trkpt>
      <trkpt lat="44.15442" lon="5.15192">
        <ele>623.55</ele>
        <time>2017-11-27T10:11:21Z</time>
      </trkpt>
      <trkpt lat="44.1545" lon="5.1519">
        <ele>624.51</ele>
        <time>2017-11-27T10:11:34Z</time>
      </trkpt>
      <trkpt lat="44.15459" lon="5.15189">
        <ele>626.44</ele>
        <time>2017-11-27T10:11:50Z</time>
      </trkpt>
      <trkpt lat="44.15468" lon="5.15187">
        <ele>628.84</ele>
        <time>2017-11-27T10:12:06Z</time>
      </trkpt>
      <trkpt lat="44.15476" lon="5.15184">
        <ele>630.28</ele>
        <time>2017-11-27T10:12:20Z</time>
      </trkpt>
      <trkpt lat="44.15488" lon="5.15181">
        <ele>632.2</ele>
        <time>2017-11-27T10:12:35Z</time>
      </trkpt>
      <trkpt lat="44.15497" lon="5.15182">
        <ele>634.13</ele>
        <time>2017-11-27T10:12:50Z</time>
      </trkpt>
      <trkpt lat="44.15507" lon="5.15187">
        <ele>636.05</ele>
        <time>2017-11-27T10:13:07Z</time>
      </trkpt>
      <trkpt lat="44.15515" lon="5.15194">
        <ele>638.45</ele>
        <time>2017-11-27T10:13:24Z</time>
      </trkpt>
      <trkpt lat="44.15528" lon="5.15204">
        <ele>640.38</ele>
        <time>2017-11-27T10:13:41Z</time>
      </trkpt>
      <trkpt lat="44.15538" lon="5.15217">
        <ele>642.78</ele>
        <time>2017-11-27T10:14:01Z</time>
      </trkpt>
      <trkpt lat="44.15547" lon="5.15224">
        <ele>645.18</ele>
        <time>2017-11-27T10:14:18Z</time>
      </trkpt>
      <trkpt lat="44.1555" lon="5.15235">
        <ele>646.14</ele>
        <time>2017-11-27T10:14:33Z</time>
      </trkpt>
      <trkpt lat="44.15552" lon="5.1524">
        <ele>646.62</ele>
        <time>2017-11-27T10:14:45Z</time>
      </trkpt>
      <trkpt lat="44.15552" lon="5.15241">
        <ele>646.14</ele>
        <time>2017-11-27T10:14:57Z</time>
      </trkpt>
      <trkpt lat="44.15553" lon="5.15242">
        <ele>646.14</ele>
        <time>2017-11-27T10:15:11Z</time>
      </trkpt>
      <trkpt lat="44.15554" lon="5.1524">
        <ele>646.14</ele>
        <time>2017-11-27T10:15:30Z</time>
      </trkpt>
      <trkpt lat="44.15553" lon="5.15238">
        <ele>646.14</ele>
        <time>2017-11-27T10:15:52Z</time>
      </trkpt>
      <trkpt lat="44.15554" lon="5.1524">
        <ele>646.14</ele>
        <time>2017-11-27T10:16:14Z</time>
      </trkpt>
      <trkpt lat="44.15556" lon="5.15241">
        <ele>646.14</ele>
        <time>2017-11-27T10:16:38Z</time>
      </trkpt>
      <trkpt lat="44.15556" lon="5.15241">
        <ele>646.14</ele>
        <time>2017-11-27T10:17:01Z</time>
      </trkpt>
      <trkpt lat="44.15558" lon="5.15242">
        <ele>646.14</ele>
        <time>2017-11-27T10:17:19Z</time>
      </trkpt>
      <trkpt lat="44.15557" lon="5.15245">
        <ele>646.62</ele>
        <time>2017-11-27T10:17:37Z</time>
      </trkpt>
      <trkpt lat="44.15551" lon="5.15249">
        <ele>646.62</ele>
        <time>2017-11-27T10:18:06Z</time>
      </trkpt>
      <trkpt lat="44.1555" lon="5.15254">
        <ele>646.14</ele>
        <time>2017-11-27T10:18:24Z</time>
      </trkpt>
      <trkpt lat="44.15543" lon="5.15265">
        <ele>644.22</ele>
        <time>2017-11-27T10:18:41Z</time>
      </trkpt>
      <trkpt lat="44.15542" lon="5.15276">
        <ele>642.3</ele>
        <time>2017-11-27T10:18:55Z</time>
      </trkpt>
      <trkpt lat="44.1554" lon="5.15288">
        <ele>639.89</ele>
        <time>2017-11-27T10:19:10Z</time>
      </trkpt>
      <trkpt lat="44.15541" lon="5.15302">
        <ele>638.45</ele>
        <time>2017-11-27T10:19:26Z</time>
      </trkpt>
      <trkpt lat="44.15545" lon="5.15318">
        <ele>637.01</ele>
        <time>2017-11-27T10:19:43Z</time>
      </trkpt>
      <trkpt lat="44.15552" lon="5.15337">
        <ele>635.57</ele>
        <time>2017-11-27T10:20:01Z</time>
      </trkpt>
      <trkpt lat="44.15563" lon="5.15347">
        <ele>635.57</ele>
        <time>2017-11-27T10:20:15Z</time>
      </trkpt>
      <trkpt lat="44.15575" lon="5.1536">
        <ele>635.57</ele>
        <time>2017-11-27T10:20:33Z</time>
      </trkpt>
      <trkpt lat="44.15587" lon="5.15366">
        <ele>635.09</ele>
        <time>2017-11-27T10:20:49Z</time>
      </trkpt>
      <trkpt lat="44.15602" lon="5.15371">
        <ele>635.09</ele>
        <time>2017-11-27T10:21:08Z</time>
      </trkpt>
      <trkpt lat="44.15609" lon="5.15378">
        <ele>633.65</ele>
        <time>2017-11-27T10:21:23Z</time>
      </trkpt>
      <trkpt lat="44.15622" lon="5.15383">
        <ele>632.2</ele>
        <time>2017-11-27T10:21:41Z</time>
      </trkpt>
      <trkpt lat="44.15635" lon="5.15384">
        <ele>631.72</ele>
        <time>2017-11-27T10:21:57Z</time>
      </trkpt>
      <trkpt lat="44.15644" lon="5.15394">
        <ele>630.28</ele>
        <time>2017-11-27T10:22:11Z</time>
      </trkpt>
      <trkpt lat="44.15654" lon="5.15406">
        <ele>629.32</ele>
        <time>2017-11-27T10:22:27Z</time>
      </trkpt>
      <trkpt lat="44.15663" lon="5.1542">
        <ele>626.44</ele>
        <time>2017-11-27T10:22:46Z</time>
      </trkpt>
      <trkpt lat="44.15668" lon="5.15433">
        <ele>624.03</ele>
        <time>2017-11-27T10:23:03Z</time>
      </trkpt>
      <trkpt lat="44.15671" lon="5.15442">
        <ele>622.11</ele>
        <time>2017-11-27T10:23:17Z</time>
      </trkpt>
      <trkpt lat="44.1567" lon="5.15449">
        <ele>620.19</ele>
        <time>2017-11-27T10:23:33Z</time>
      </trkpt>
      <trkpt lat="44.15677" lon="5.15464">
        <ele>617.3</ele>
        <time>2017-11-27T10:23:49Z</time>
      </trkpt>
      <trkpt lat="44.15686" lon="5.15474">
        <ele>615.38</ele>
        <time>2017-11-27T10:24:04Z</time>
      </trkpt>
      <trkpt lat="44.15693" lon="5.15486">
        <ele>613.46</ele>
        <time>2017-11-27T10:24:20Z</time>
      </trkpt>
      <trkpt lat="44.15702" lon="5.155">
        <ele>610.57</ele>
        <time>2017-11-27T10:24:40Z</time>
      </trkpt>
      <trkpt lat="44.15711" lon="5.15512">
        <ele>608.17</ele>
        <time>2017-11-27T10:24:58Z</time>
      </trkpt>
      <trkpt lat="44.15718" lon="5.15522">
        <ele>606.25</ele>
        <time>2017-11-27T10:25:15Z</time>
      </trkpt>
      <trkpt lat="44.15723" lon="5.15529">
        <ele>604.33</ele>
        <time>2017-11-27T10:25:29Z</time>
      </trkpt>
      <trkpt lat="44.15725" lon="5.1554">
        <ele>602.4</ele>
        <time>2017-11-27T10:25:45Z</time>
      </trkpt>
      <trkpt lat="44.1573" lon="5.15553">
        <ele>600.48</ele>
        <time>2017-11-27T10:26:02Z</time>
      </trkpt>
      <trkpt lat="44.15733" lon="5.15568">
        <ele>598.56</ele>
        <time>2017-11-27T10:26:17Z</time>
      </trkpt>
      <trkpt lat="44.15739" lon="5.15582">
        <ele>597.12</ele>
        <time>2017-11-27T10:26:32Z</time>
      </trkpt>
      <trkpt lat="44.15747" lon="5.1559">
        <ele>595.19</ele>
        <time>2017-11-27T10:26:49Z</time>
      </trkpt>
      <trkpt lat="44.15752" lon="5.15607">
        <ele>593.27</ele>
        <time>2017-11-27T10:27:04Z</time>
      </trkpt>
      <trkpt lat="44.15758" lon="5.15617">
        <ele>590.39</ele>
        <time>2017-11-27T10:27:23Z</time>
      </trkpt>
      <trkpt lat="44.15762" lon="5.15623">
        <ele>589.91</ele>
        <time>2017-11-27T10:27:38Z</time>
      </trkpt>
      <trkpt lat="44.15772" lon="5.1562">
        <ele>589.91</ele>
        <time>2017-11-27T10:27:54Z</time>
      </trkpt>
      <trkpt lat="44.15778" lon="5.1562">
        <ele>589.91</ele>
        <time>2017-11-27T10:28:21Z</time>
      </trkpt>
      <trkpt lat="44.15782" lon="5.15617">
        <ele>591.35</ele>
        <time>2017-11-27T10:28:36Z</time>
      </trkpt>
      <trkpt lat="44.15793" lon="5.15621">
        <ele>591.35</ele>
        <time>2017-11-27T10:28:51Z</time>
      </trkpt>
      <trkpt lat="44.15805" lon="5.15629">
        <ele>591.83</ele>
        <time>2017-11-27T10:29:08Z</time>
      </trkpt>
      <trkpt lat="44.15818" lon="5.15643">
        <ele>592.79</ele>
        <time>2017-11-27T10:29:25Z</time>
      </trkpt>
      <trkpt lat="44.15829" lon="5.15656">
        <ele>593.75</ele>
        <time>2017-11-27T10:29:40Z</time>
      </trkpt>
      <trkpt lat="44.15841" lon="5.15667">
        <ele>593.75</ele>
        <time>2017-11-27T10:29:53Z</time>
      </trkpt>
      <trkpt lat="44.1585" lon="5.15687">
        <ele>594.23</ele>
        <time>2017-11-27T10:30:07Z</time>
      </trkpt>
      <trkpt lat="44.15862" lon="5.15701">
        <ele>595.19</ele>
        <time>2017-11-27T10:30:20Z</time>
      </trkpt>
      <trkpt lat="44.15877" lon="5.15714">
        <ele>595.67</ele>
        <time>2017-11-27T10:30:34Z</time>
      </trkpt>
      <trkpt lat="44.15893" lon="5.15732">
        <ele>596.64</ele>
        <time>2017-11-27T10:30:49Z</time>
      </trkpt>
      <trkpt lat="44.15905" lon="5.15743">
        <ele>597.6</ele>
        <time>2017-11-27T10:31:03Z</time>
      </trkpt>
      <trkpt lat="44.15915" lon="5.15742">
        <ele>598.08</ele>
        <time>2017-11-27T10:31:16Z</time>
      </trkpt>
      <trkpt lat="44.15928" lon="5.15736">
        <ele>599.52</ele>
        <time>2017-11-27T10:31:31Z</time>
      </trkpt>
      <trkpt lat="44.15939" lon="5.15722">
        <ele>600</ele>
        <time>2017-11-27T10:31:47Z</time>
      </trkpt>
      <trkpt lat="44.15948" lon="5.15718">
        <ele>600.96</ele>
        <time>2017-11-27T10:32:00Z</time>
      </trkpt>
      <trkpt lat="44.15957" lon="5.15709">
        <ele>601.92</ele>
        <time>2017-11-27T10:32:14Z</time>
      </trkpt>
      <trkpt lat="44.15964" lon="5.15695">
        <ele>603.36</ele>
        <time>2017-11-27T10:32:28Z</time>
      </trkpt>
      <trkpt lat="44.1597" lon="5.15684">
        <ele>604.81</ele>
        <time>2017-11-27T10:32:40Z</time>
      </trkpt>
      <trkpt lat="44.15974" lon="5.1567">
        <ele>606.73</ele>
        <time>2017-11-27T10:32:53Z</time>
      </trkpt>
      <trkpt lat="44.15978" lon="5.15655">
        <ele>608.17</ele>
        <time>2017-11-27T10:33:07Z</time>
      </trkpt>
      <trkpt lat="44.15978" lon="5.15648">
        <ele>608.65</ele>
        <time>2017-11-27T10:33:22Z</time>
      </trkpt>
      <trkpt lat="44.15977" lon="5.15649">
        <ele>608.65</ele>
        <time>2017-11-27T10:33:29Z</time>
      </trkpt>
      <trkpt lat="44.15976" lon="5.15648">
        <ele>608.17</ele>
        <time>2017-11-27T10:33:47Z</time>
      </trkpt>
      <trkpt lat="44.15976" lon="5.15641">
        <ele>609.61</ele>
        <time>2017-11-27T10:34:12Z</time>
      </trkpt>
      <trkpt lat="44.15975" lon="5.15639">
        <ele>608.65</ele>
        <time>2017-11-27T10:34:24Z</time>
      </trkpt>
      <trkpt lat="44.15973" lon="5.1563">
        <ele>608.65</ele>
        <time>2017-11-27T10:34:41Z</time>
      </trkpt>
      <trkpt lat="44.1597" lon="5.15619">
        <ele>611.54</ele>
        <time>2017-11-27T10:34:57Z</time>
      </trkpt>
      <trkpt lat="44.15965" lon="5.15609">
        <ele>614.42</ele>
        <time>2017-11-27T10:35:12Z</time>
      </trkpt>
      <trkpt lat="44.1596" lon="5.15595">
        <ele>617.3</ele>
        <time>2017-11-27T10:35:28Z</time>
      </trkpt>
      <trkpt lat="44.15957" lon="5.15584">
        <ele>620.67</ele>
        <time>2017-11-27T10:35:44Z</time>
      </trkpt>
      <trkpt lat="44.15953" lon="5.15574">
        <ele>623.55</ele>
        <time>2017-11-27T10:36:00Z</time>
      </trkpt>
      <trkpt lat="44.15952" lon="5.15564">
        <ele>625.47</ele>
        <time>2017-11-27T10:36:20Z</time>
      </trkpt>
      <trkpt lat="44.15949" lon="5.15555">
        <ele>628.84</ele>
        <time>2017-11-27T10:36:35Z</time>
      </trkpt>
      <trkpt lat="44.15946" lon="5.15545">
        <ele>631.72</ele>
        <time>2017-11-27T10:36:52Z</time>
      </trkpt>
      <trkpt lat="44.15943" lon="5.15532">
        <ele>635.09</ele>
        <time>2017-11-27T10:37:10Z</time>
      </trkpt>
      <trkpt lat="44.15943" lon="5.15527">
        <ele>635.57</ele>
        <time>2017-11-27T10:37:24Z</time>
      </trkpt>
      <trkpt lat="44.1594" lon="5.1552">
        <ele>637.49</ele>
        <time>2017-11-27T10:37:39Z</time>
      </trkpt>
      <trkpt lat="44.15934" lon="5.15511">
        <ele>639.89</ele>
        <time>2017-11-27T10:37:52Z</time>
      </trkpt>
      <trkpt lat="44.15929" lon="5.15503">
        <ele>642.78</ele>
        <time>2017-11-27T10:38:08Z</time>
      </trkpt>
      <trkpt lat="44.15927" lon="5.15494">
        <ele>645.66</ele>
        <time>2017-11-27T10:38:24Z</time>
      </trkpt>
      <trkpt lat="44.15922" lon="5.1549">
        <ele>647.59</ele>
        <time>2017-11-27T10:38:39Z</time>
      </trkpt>
      <trkpt lat="44.15919" lon="5.15484">
        <ele>649.99</ele>
        <time>2017-11-27T10:38:53Z</time>
      </trkpt>
      <trkpt lat="44.15913" lon="5.15479">
        <ele>651.91</ele>
        <time>2017-11-27T10:39:09Z</time>
      </trkpt>
      <trkpt lat="44.1591" lon="5.15473">
        <ele>653.83</ele>
        <time>2017-11-27T10:39:22Z</time>
      </trkpt>
      <trkpt lat="44.15905" lon="5.15468">
        <ele>656.72</ele>
        <time>2017-11-27T10:39:38Z</time>
      </trkpt>
      <trkpt lat="44.15899" lon="5.15465">
        <ele>658.64</ele>
        <time>2017-11-27T10:39:51Z</time>
      </trkpt>
      <trkpt lat="44.15891" lon="5.15458">
        <ele>661.52</ele>
        <time>2017-11-27T10:40:07Z</time>
      </trkpt>
      <trkpt lat="44.15888" lon="5.15448">
        <ele>663.45</ele>
        <time>2017-11-27T10:40:20Z</time>
      </trkpt>
      <trkpt lat="44.1588" lon="5.15435">
        <ele>665.37</ele>
        <time>2017-11-27T10:40:37Z</time>
      </trkpt>
      <trkpt lat="44.15874" lon="5.15435">
        <ele>665.85</ele>
        <time>2017-11-27T10:40:54Z</time>
      </trkpt>
      <trkpt lat="44.15871" lon="5.15435">
        <ele>665.85</ele>
        <time>2017-11-27T10:41:13Z</time>
      </trkpt>
      <trkpt lat="44.15873" lon="5.15433">
        <ele>666.33</ele>
        <time>2017-11-27T10:41:31Z</time>
      </trkpt>
      <trkpt lat="44.15874" lon="5.15435">
        <ele>667.29</ele>
        <time>2017-11-27T10:41:33Z</time>
      </trkpt>
      <trkpt lat="44.15878" lon="5.15432">
        <ele>665.85</ele>
        <time>2017-11-27T10:41:47Z</time>
      </trkpt>
      <trkpt lat="44.15877" lon="5.15423">
        <ele>665.85</ele>
        <time>2017-11-27T10:42:07Z</time>
      </trkpt>
      <trkpt lat="44.15879" lon="5.15408">
        <ele>665.85</ele>
        <time>2017-11-27T10:42:19Z</time>
      </trkpt>
      <trkpt lat="44.15877" lon="5.15389">
        <ele>663.93</ele>
        <time>2017-11-27T10:42:38Z</time>
      </trkpt>
      <trkpt lat="44.15877" lon="5.15386">
        <ele>665.37</ele>
        <time>2017-11-27T10:42:41Z</time>
      </trkpt>
      <trkpt lat="44.15878" lon="5.15384">
        <ele>665.37</ele>
        <time>2017-11-27T10:42:43Z</time>
      </trkpt>
      <trkpt lat="44.15883" lon="5.15365">
        <ele>666.81</ele>
        <time>2017-11-27T10:43:00Z</time>
      </trkpt>
      <trkpt lat="44.15886" lon="5.15356">
        <ele>667.29</ele>
        <time>2017-11-27T10:43:14Z</time>
      </trkpt>
      <trkpt lat="44.1589" lon="5.15341">
        <ele>668.25</ele>
        <time>2017-11-27T10:43:28Z</time>
      </trkpt>
      <trkpt lat="44.15894" lon="5.15324">
        <ele>669.7</ele>
        <time>2017-11-27T10:43:44Z</time>
      </trkpt>
      <trkpt lat="44.15901" lon="5.15311">
        <ele>670.66</ele>
        <time>2017-11-27T10:43:59Z</time>
      </trkpt>
      <trkpt lat="44.15909" lon="5.15304">
        <ele>673.06</ele>
        <time>2017-11-27T10:44:13Z</time>
      </trkpt>
      <trkpt lat="44.15919" lon="5.15295">
        <ele>674.98</ele>
        <time>2017-11-27T10:44:28Z</time>
      </trkpt>
      <trkpt lat="44.1593" lon="5.15285">
        <ele>675.46</ele>
        <time>2017-11-27T10:44:43Z</time>
      </trkpt>
      <trkpt lat="44.15943" lon="5.15278">
        <ele>675.94</ele>
        <time>2017-11-27T10:44:57Z</time>
      </trkpt>
      <trkpt lat="44.1595" lon="5.15278">
        <ele>677.87</ele>
        <time>2017-11-27T10:45:11Z</time>
      </trkpt>
      <trkpt lat="44.15961" lon="5.15277">
        <ele>680.75</ele>
        <time>2017-11-27T10:45:27Z</time>
      </trkpt>
      <trkpt lat="44.15972" lon="5.15281">
        <ele>682.67</ele>
        <time>2017-11-27T10:45:45Z</time>
      </trkpt>
      <trkpt lat="44.15985" lon="5.15284">
        <ele>684.6</ele>
        <time>2017-11-27T10:46:01Z</time>
      </trkpt>
      <trkpt lat="44.16" lon="5.15288">
        <ele>687</ele>
        <time>2017-11-27T10:46:17Z</time>
      </trkpt>
      <trkpt lat="44.16008" lon="5.1529">
        <ele>688.44</ele>
        <time>2017-11-27T10:46:31Z</time>
      </trkpt>
      <trkpt lat="44.1602" lon="5.15296">
        <ele>690.84</ele>
        <time>2017-11-27T10:46:47Z</time>
      </trkpt>
      <trkpt lat="44.1603" lon="5.15311">
        <ele>693.25</ele>
        <time>2017-11-27T10:47:07Z</time>
      </trkpt>
      <trkpt lat="44.16042" lon="5.15326">
        <ele>693.73</ele>
        <time>2017-11-27T10:47:23Z</time>
      </trkpt>
      <trkpt lat="44.16051" lon="5.15337">
        <ele>692.29</ele>
        <time>2017-11-27T10:47:38Z</time>
      </trkpt>
      <trkpt lat="44.16059" lon="5.15346">
        <ele>690.84</ele>
        <time>2017-11-27T10:47:52Z</time>
      </trkpt>
      <trkpt lat="44.16067" lon="5.15358">
        <ele>690.36</ele>
        <time>2017-11-27T10:48:06Z</time>
      </trkpt>
      <trkpt lat="44.16081" lon="5.15369">
        <ele>690.36</ele>
        <time>2017-11-27T10:48:23Z</time>
      </trkpt>
      <trkpt lat="44.16095" lon="5.15378">
        <ele>692.77</ele>
        <time>2017-11-27T10:48:38Z</time>
      </trkpt>
      <trkpt lat="44.16108" lon="5.15389">
        <ele>693.73</ele>
        <time>2017-11-27T10:48:54Z</time>
      </trkpt>
      <trkpt lat="44.16123" lon="5.15399">
        <ele>695.17</ele>
        <time>2017-11-27T10:49:10Z</time>
      </trkpt>
      <trkpt lat="44.16135" lon="5.15409">
        <ele>695.65</ele>
        <time>2017-11-27T10:49:24Z</time>
      </trkpt>
      <trkpt lat="44.1614" lon="5.15413">
        <ele>695.65</ele>
        <time>2017-11-27T10:49:46Z</time>
      </trkpt>
      <trkpt lat="44.16139" lon="5.1541">
        <ele>696.13</ele>
        <time>2017-11-27T10:50:13Z</time>
      </trkpt>
      <trkpt lat="44.16142" lon="5.15412">
        <ele>696.13</ele>
        <time>2017-11-27T10:50:33Z</time>
      </trkpt>
      <trkpt lat="44.16141" lon="5.15414">
        <ele>696.13</ele>
        <time>2017-11-27T10:50:53Z</time>
      </trkpt>
      <trkpt lat="44.16139" lon="5.15414">
        <ele>695.17</ele>
        <time>2017-11-27T10:51:06Z</time>
      </trkpt>
      <trkpt lat="44.16132" lon="5.15413">
        <ele>695.17</ele>
        <time>2017-11-27T10:51:30Z</time>
      </trkpt>
      <trkpt lat="44.16135" lon="5.1541">
        <ele>694.69</ele>
        <time>2017-11-27T10:52:05Z</time>
      </trkpt>
      <trkpt lat="44.16138" lon="5.15413">
        <ele>695.17</ele>
        <time>2017-11-27T10:52:51Z</time>
      </trkpt>
      <trkpt lat="44.16137" lon="5.15412">
        <ele>695.17</ele>
        <time>2017-11-27T10:53:27Z</time>
      </trkpt>
      <trkpt lat="44.16138" lon="5.15413">
        <ele>695.17</ele>
        <time>2017-11-27T10:53:53Z</time>
      </trkpt>
      <trkpt lat="44.16138" lon="5.15413">
        <ele>695.17</ele>
        <time>2017-11-27T10:54:31Z</time>
      </trkpt>
      <trkpt lat="44.16139" lon="5.15413">
        <ele>695.65</ele>
        <time>2017-11-27T10:55:11Z</time>
      </trkpt>
      <trkpt lat="44.16136" lon="5.15415">
        <ele>695.65</ele>
        <time>2017-11-27T10:55:52Z</time>
      </trkpt>
      <trkpt lat="44.16138" lon="5.15415">
        <ele>695.65</ele>
        <time>2017-11-27T10:56:35Z</time>
      </trkpt>
      <trkpt lat="44.16137" lon="5.1541">
        <ele>695.65</ele>
        <time>2017-11-27T10:57:11Z</time>
      </trkpt>
      <trkpt lat="44.16137" lon="5.15415">
        <ele>695.65</ele>
        <time>2017-11-27T10:57:53Z</time>
      </trkpt>
      <trkpt lat="44.1614" lon="5.15415">
        <ele>696.13</ele>
        <time>2017-11-27T10:58:26Z</time>
      </trkpt>
      <trkpt lat="44.16138" lon="5.15415">
        <ele>697.09</ele>
        <time>2017-11-27T10:58:59Z</time>
      </trkpt>
      <trkpt lat="44.16139" lon="5.15413">
        <ele>697.57</ele>
        <time>2017-11-27T10:59:33Z</time>
      </trkpt>
      <trkpt lat="44.16137" lon="5.15413">
        <ele>697.57</ele>
        <time>2017-11-27T11:00:13Z</time>
      </trkpt>
      <trkpt lat="44.1614" lon="5.15415">
        <ele>698.05</ele>
        <time>2017-11-27T11:01:00Z</time>
      </trkpt>
      <trkpt lat="44.16139" lon="5.15409">
        <ele>698.53</ele>
        <time>2017-11-27T11:01:34Z</time>
      </trkpt>
      <trkpt lat="44.16136" lon="5.15411">
        <ele>698.53</ele>
        <time>2017-11-27T11:02:16Z</time>
      </trkpt>
      <trkpt lat="44.16139" lon="5.15413">
        <ele>698.53</ele>
        <time>2017-11-27T11:02:52Z</time>
      </trkpt>
      <trkpt lat="44.16138" lon="5.15417">
        <ele>699.02</ele>
        <time>2017-11-27T11:03:33Z</time>
      </trkpt>
      <trkpt lat="44.16136" lon="5.15417">
        <ele>699.02</ele>
        <time>2017-11-27T11:04:11Z</time>
      </trkpt>
      <trkpt lat="44.16136" lon="5.15416">
        <ele>699.02</ele>
        <time>2017-11-27T11:04:40Z</time>
      </trkpt>
      <trkpt lat="44.16135" lon="5.15421">
        <ele>699.02</ele>
        <time>2017-11-27T11:05:11Z</time>
      </trkpt>
      <trkpt lat="44.16135" lon="5.15416">
        <ele>699.02</ele>
        <time>2017-11-27T11:05:39Z</time>
      </trkpt>
      <trkpt lat="44.16133" lon="5.15412">
        <ele>699.5</ele>
        <time>2017-11-27T11:06:12Z</time>
      </trkpt>
      <trkpt lat="44.16132" lon="5.1541">
        <ele>699.5</ele>
        <time>2017-11-27T11:06:46Z</time>
      </trkpt>
      <trkpt lat="44.16133" lon="5.15411">
        <ele>699.5</ele>
        <time>2017-11-27T11:07:04Z</time>
      </trkpt>
      <trkpt lat="44.16136" lon="5.15417">
        <ele>699.5</ele>
        <time>2017-11-27T11:07:48Z</time>
      </trkpt>
      <trkpt lat="44.16135" lon="5.15415">
        <ele>699.98</ele>
        <time>2017-11-27T11:08:26Z</time>
      </trkpt>
      <trkpt lat="44.16133" lon="5.15413">
        <ele>699.98</ele>
        <time>2017-11-27T11:09:00Z</time>
      </trkpt>
      <trkpt lat="44.16134" lon="5.15414">
        <ele>699.98</ele>
        <time>2017-11-27T11:09:27Z</time>
      </trkpt>
      <trkpt lat="44.16134" lon="5.1541">
        <ele>699.98</ele>
        <time>2017-11-27T11:10:00Z</time>
      </trkpt>
      <trkpt lat="44.16136" lon="5.15408">
        <ele>699.98</ele>
        <time>2017-11-27T11:10:30Z</time>
      </trkpt>
      <trkpt lat="44.16136" lon="5.1541">
        <ele>699.98</ele>
        <time>2017-11-27T11:11:00Z</time>
      </trkpt>
      <trkpt lat="44.16134" lon="5.15409">
        <ele>700.46</ele>
        <time>2017-11-27T11:11:29Z</time>
      </trkpt>
      <trkpt lat="44.16134" lon="5.15407">
        <ele>700.46</ele>
        <time>2017-11-27T11:12:00Z</time>
      </trkpt>
      <trkpt lat="44.16135" lon="5.1541">
        <ele>700.46</ele>
        <time>2017-11-27T11:12:30Z</time>
      </trkpt>
      <trkpt lat="44.16135" lon="5.15411">
        <ele>700.94</ele>
        <time>2017-11-27T11:12:57Z</time>
      </trkpt>
      <trkpt lat="44.16135" lon="5.1541">
        <ele>700.46</ele>
        <time>2017-11-27T11:13:24Z</time>
      </trkpt>
      <trkpt lat="44.16136" lon="5.1541">
        <ele>700.46</ele>
        <time>2017-11-27T11:14:03Z</time>
      </trkpt>
      <trkpt lat="44.16136" lon="5.15411">
        <ele>700.46</ele>
        <time>2017-11-27T11:14:40Z</time>
      </trkpt>
      <trkpt lat="44.16135" lon="5.15408">
        <ele>700.46</ele>
        <time>2017-11-27T11:15:19Z</time>
      </trkpt>
      <trkpt lat="44.16136" lon="5.15411">
        <ele>700.46</ele>
        <time>2017-11-27T11:15:58Z</time>
      </trkpt>
      <trkpt lat="44.16136" lon="5.15412">
        <ele>700.46</ele>
        <time>2017-11-27T11:16:31Z</time>
      </trkpt>
      <trkpt lat="44.16134" lon="5.15414">
        <ele>700.46</ele>
        <time>2017-11-27T11:17:09Z</time>
      </trkpt>
      <trkpt lat="44.16134" lon="5.15413">
        <ele>699.98</ele>
        <time>2017-11-27T11:17:44Z</time>
      </trkpt>
      <trkpt lat="44.16137" lon="5.15413">
        <ele>699.98</ele>
        <time>2017-11-27T11:18:20Z</time>
      </trkpt>
      <trkpt lat="44.16135" lon="5.15409">
        <ele>699.98</ele>
        <time>2017-11-27T11:18:48Z</time>
      </trkpt>
      <trkpt lat="44.16132" lon="5.1541">
        <ele>699.98</ele>
        <time>2017-11-27T11:19:22Z</time>
      </trkpt>
      <trkpt lat="44.16132" lon="5.15411">
        <ele>699.98</ele>
        <time>2017-11-27T11:19:52Z</time>
      </trkpt>
      <trkpt lat="44.16133" lon="5.15411">
        <ele>699.98</ele>
        <time>2017-11-27T11:20:29Z</time>
      </trkpt>
      <trkpt lat="44.16137" lon="5.15409">
        <ele>700.46</ele>
        <time>2017-11-27T11:20:48Z</time>
      </trkpt>
      <trkpt lat="44.16139" lon="5.15412">
        <ele>700.46</ele>
        <time>2017-11-27T11:21:16Z</time>
      </trkpt>
      <trkpt lat="44.1614" lon="5.1541">
        <ele>700.46</ele>
        <time>2017-11-27T11:21:40Z</time>
      </trkpt>
      <trkpt lat="44.16136" lon="5.15409">
        <ele>700.94</ele>
        <time>2017-11-27T11:22:09Z</time>
      </trkpt>
      <trkpt lat="44.16133" lon="5.15412">
        <ele>700.94</ele>
        <time>2017-11-27T11:22:42Z</time>
      </trkpt>
      <trkpt lat="44.1613" lon="5.15412">
        <ele>700.94</ele>
        <time>2017-11-27T11:23:07Z</time>
      </trkpt>
      <trkpt lat="44.16131" lon="5.15416">
        <ele>700.94</ele>
        <time>2017-11-27T11:23:43Z</time>
      </trkpt>
      <trkpt lat="44.16137" lon="5.15416">
        <ele>700.94</ele>
        <time>2017-11-27T11:24:15Z</time>
      </trkpt>
      <trkpt lat="44.16134" lon="5.15413">
        <ele>700.46</ele>
        <time>2017-11-27T11:24:51Z</time>
      </trkpt>
      <trkpt lat="44.16134" lon="5.15414">
        <ele>700.46</ele>
        <time>2017-11-27T11:25:30Z</time>
      </trkpt>
      <trkpt lat="44.16132" lon="5.15418">
        <ele>700.94</ele>
        <time>2017-11-27T11:26:05Z</time>
      </trkpt>
      <trkpt lat="44.16136" lon="5.15417">
        <ele>700.94</ele>
        <time>2017-11-27T11:26:46Z</time>
      </trkpt>
      <trkpt lat="44.16134" lon="5.15414">
        <ele>700.94</ele>
        <time>2017-11-27T11:27:20Z</time>
      </trkpt>
      <trkpt lat="44.16133" lon="5.15414">
        <ele>700.94</ele>
        <time>2017-11-27T11:27:59Z</time>
      </trkpt>
      <trkpt lat="44.16136" lon="5.15418">
        <ele>700.94</ele>
        <time>2017-11-27T11:28:32Z</time>
      </trkpt>
      <trkpt lat="44.16136" lon="5.15419">
        <ele>700.94</ele>
        <time>2017-11-27T11:29:00Z</time>
      </trkpt>
      <trkpt lat="44.16135" lon="5.15414">
        <ele>701.42</ele>
        <time>2017-11-27T11:29:40Z</time>
      </trkpt>
      <trkpt lat="44.16135" lon="5.15414">
        <ele>701.9</ele>
        <time>2017-11-27T11:30:14Z</time>
      </trkpt>
      <trkpt lat="44.16141" lon="5.15414">
        <ele>701.42</ele>
        <time>2017-11-27T11:31:02Z</time>
      </trkpt>
      <trkpt lat="44.16143" lon="5.15414">
        <ele>701.42</ele>
        <time>2017-11-27T11:31:40Z</time>
      </trkpt>
      <trkpt lat="44.16136" lon="5.15413">
        <ele>701.42</ele>
        <time>2017-11-27T11:32:20Z</time>
      </trkpt>
      <trkpt lat="44.16133" lon="5.15417">
        <ele>701.42</ele>
        <time>2017-11-27T11:32:57Z</time>
      </trkpt>
      <trkpt lat="44.16132" lon="5.15416">
        <ele>700.94</ele>
        <time>2017-11-27T11:33:33Z</time>
      </trkpt>
      <trkpt lat="44.16135" lon="5.1541">
        <ele>700.94</ele>
        <time>2017-11-27T11:34:07Z</time>
      </trkpt>
      <trkpt lat="44.16133" lon="5.15409">
        <ele>700.94</ele>
        <time>2017-11-27T11:34:46Z</time>
      </trkpt>
      <trkpt lat="44.16137" lon="5.15415">
        <ele>701.42</ele>
        <time>2017-11-27T11:35:21Z</time>
      </trkpt>
      <trkpt lat="44.16137" lon="5.15414">
        <ele>700.46</ele>
        <time>2017-11-27T11:35:42Z</time>
      </trkpt>
      <trkpt lat="44.16135" lon="5.15411">
        <ele>700.46</ele>
        <time>2017-11-27T11:35:59Z</time>
      </trkpt>
      <trkpt lat="44.16135" lon="5.15407">
        <ele>705.75</ele>
        <time>2017-11-27T11:36:07Z</time>
      </trkpt>
      <trkpt lat="44.16135" lon="5.15409">
        <ele>701.9</ele>
        <time>2017-11-27T11:36:08Z</time>
      </trkpt>
      <trkpt lat="44.16137" lon="5.15417">
        <ele>701.42</ele>
        <time>2017-11-27T11:36:25Z</time>
      </trkpt>
      <trkpt lat="44.16139" lon="5.1542">
        <ele>701.42</ele>
        <time>2017-11-27T11:36:45Z</time>
      </trkpt>
      <trkpt lat="44.16144" lon="5.15422">
        <ele>701.42</ele>
        <time>2017-11-27T11:37:13Z</time>
      </trkpt>
      <trkpt lat="44.16148" lon="5.15419">
        <ele>700.94</ele>
        <time>2017-11-27T11:37:30Z</time>
      </trkpt>
      <trkpt lat="44.16149" lon="5.15419">
        <ele>700.94</ele>
        <time>2017-11-27T11:37:57Z</time>
      </trkpt>
      <trkpt lat="44.16154" lon="5.15417">
        <ele>700.94</ele>
        <time>2017-11-27T11:38:28Z</time>
      </trkpt>
      <trkpt lat="44.16148" lon="5.15417">
        <ele>700.94</ele>
        <time>2017-11-27T11:38:48Z</time>
      </trkpt>
      <trkpt lat="44.16151" lon="5.15415">
        <ele>700.46</ele>
        <time>2017-11-27T11:39:10Z</time>
      </trkpt>
      <trkpt lat="44.16153" lon="5.15403">
        <ele>698.05</ele>
        <time>2017-11-27T11:39:27Z</time>
      </trkpt>
      <trkpt lat="44.16156" lon="5.15392">
        <ele>695.65</ele>
        <time>2017-11-27T11:39:41Z</time>
      </trkpt>
      <trkpt lat="44.16162" lon="5.1538">
        <ele>692.77</ele>
        <time>2017-11-27T11:39:58Z</time>
      </trkpt>
      <trkpt lat="44.16166" lon="5.15363">
        <ele>688.92</ele>
        <time>2017-11-27T11:40:17Z</time>
      </trkpt>
      <trkpt lat="44.16169" lon="5.15355">
        <ele>687</ele>
        <time>2017-11-27T11:40:33Z</time>
      </trkpt>
      <trkpt lat="44.16177" lon="5.15348">
        <ele>684.6</ele>
        <time>2017-11-27T11:40:50Z</time>
      </trkpt>
      <trkpt lat="44.16182" lon="5.15339">
        <ele>682.19</ele>
        <time>2017-11-27T11:41:06Z</time>
      </trkpt>
      <trkpt lat="44.16188" lon="5.1533">
        <ele>679.79</ele>
        <time>2017-11-27T11:41:23Z</time>
      </trkpt>
      <trkpt lat="44.16194" lon="5.15325">
        <ele>677.87</ele>
        <time>2017-11-27T11:41:38Z</time>
      </trkpt>
      <trkpt lat="44.162" lon="5.15328">
        <ele>675.46</ele>
        <time>2017-11-27T11:41:54Z</time>
      </trkpt>
      <trkpt lat="44.16204" lon="5.15327">
        <ele>674.02</ele>
        <time>2017-11-27T11:42:08Z</time>
      </trkpt>
      <trkpt lat="44.16202" lon="5.15316">
        <ele>672.1</ele>
        <time>2017-11-27T11:42:23Z</time>
      </trkpt>
      <trkpt lat="44.16205" lon="5.15305">
        <ele>669.7</ele>
        <time>2017-11-27T11:42:38Z</time>
      </trkpt>
      <trkpt lat="44.16207" lon="5.15293">
        <ele>666.81</ele>
        <time>2017-11-27T11:42:55Z</time>
      </trkpt>
      <trkpt lat="44.16208" lon="5.15285">
        <ele>665.37</ele>
        <time>2017-11-27T11:43:09Z</time>
      </trkpt>
      <trkpt lat="44.16211" lon="5.1528">
        <ele>662.97</ele>
        <time>2017-11-27T11:43:23Z</time>
      </trkpt>
      <trkpt lat="44.16212" lon="5.15271">
        <ele>661.04</ele>
        <time>2017-11-27T11:43:39Z</time>
      </trkpt>
      <trkpt lat="44.16214" lon="5.15264">
        <ele>658.64</ele>
        <time>2017-11-27T11:43:52Z</time>
      </trkpt>
      <trkpt lat="44.16219" lon="5.15253">
        <ele>656.72</ele>
        <time>2017-11-27T11:44:09Z</time>
      </trkpt>
      <trkpt lat="44.16225" lon="5.15244">
        <ele>654.31</ele>
        <time>2017-11-27T11:44:26Z</time>
      </trkpt>
      <trkpt lat="44.16229" lon="5.15232">
        <ele>651.91</ele>
        <time>2017-11-27T11:44:44Z</time>
      </trkpt>
      <trkpt lat="44.16235" lon="5.15219">
        <ele>650.47</ele>
        <time>2017-11-27T11:44:59Z</time>
      </trkpt>
      <trkpt lat="44.16242" lon="5.152">
        <ele>648.55</ele>
        <time>2017-11-27T11:45:16Z</time>
      </trkpt>
      <trkpt lat="44.16248" lon="5.15179">
        <ele>648.07</ele>
        <time>2017-11-27T11:45:32Z</time>
      </trkpt>
      <trkpt lat="44.16249" lon="5.15163">
        <ele>647.59</ele>
        <time>2017-11-27T11:45:46Z</time>
      </trkpt>
      <trkpt lat="44.1625" lon="5.15156">
        <ele>647.59</ele>
        <time>2017-11-27T11:45:51Z</time>
      </trkpt>
      <trkpt lat="44.16251" lon="5.15135">
        <ele>646.14</ele>
        <time>2017-11-27T11:46:08Z</time>
      </trkpt>
      <trkpt lat="44.16253" lon="5.15126">
        <ele>644.7</ele>
        <time>2017-11-27T11:46:21Z</time>
      </trkpt>
      <trkpt lat="44.16252" lon="5.15112">
        <ele>642.78</ele>
        <time>2017-11-27T11:46:37Z</time>
      </trkpt>
      <trkpt lat="44.1625" lon="5.15101">
        <ele>640.38</ele>
        <time>2017-11-27T11:46:52Z</time>
      </trkpt>
      <trkpt lat="44.16251" lon="5.1509">
        <ele>638.93</ele>
        <time>2017-11-27T11:47:06Z</time>
      </trkpt>
      <trkpt lat="44.16248" lon="5.1508">
        <ele>636.05</ele>
        <time>2017-11-27T11:47:24Z</time>
      </trkpt>
      <trkpt lat="44.16244" lon="5.1507">
        <ele>633.65</ele>
        <time>2017-11-27T11:47:41Z</time>
      </trkpt>
      <trkpt lat="44.16243" lon="5.15066">
        <ele>632.68</ele>
        <time>2017-11-27T11:47:57Z</time>
      </trkpt>
      <trkpt lat="44.1624" lon="5.15057">
        <ele>630.28</ele>
        <time>2017-11-27T11:48:11Z</time>
      </trkpt>
      <trkpt lat="44.16236" lon="5.1505">
        <ele>628.84</ele>
        <time>2017-11-27T11:48:24Z</time>
      </trkpt>
      <trkpt lat="44.16232" lon="5.15046">
        <ele>626.92</ele>
        <time>2017-11-27T11:48:38Z</time>
      </trkpt>
      <trkpt lat="44.1623" lon="5.15038">
        <ele>624.51</ele>
        <time>2017-11-27T11:48:52Z</time>
      </trkpt>
      <trkpt lat="44.16228" lon="5.15028">
        <ele>622.59</ele>
        <time>2017-11-27T11:49:07Z</time>
      </trkpt>
      <trkpt lat="44.16231" lon="5.15014">
        <ele>620.67</ele>
        <time>2017-11-27T11:49:26Z</time>
      </trkpt>
      <trkpt lat="44.16234" lon="5.15016">
        <ele>619.71</ele>
        <time>2017-11-27T11:49:51Z</time>
      </trkpt>
      <trkpt lat="44.16235" lon="5.15015">
        <ele>619.23</ele>
        <time>2017-11-27T11:50:23Z</time>
      </trkpt>
      <trkpt lat="44.16234" lon="5.15015">
        <ele>620.67</ele>
        <time>2017-11-27T11:50:48Z</time>
      </trkpt>
      <trkpt lat="44.16234" lon="5.15015">
        <ele>620.67</ele>
        <time>2017-11-27T11:51:06Z</time>
      </trkpt>
      <trkpt lat="44.16231" lon="5.15014">
        <ele>620.67</ele>
        <time>2017-11-27T11:51:24Z</time>
      </trkpt>
      <trkpt lat="44.16231" lon="5.15011">
        <ele>620.19</ele>
        <time>2017-11-27T11:51:49Z</time>
      </trkpt>
      <trkpt lat="44.16231" lon="5.15012">
        <ele>620.19</ele>
        <time>2017-11-27T11:52:10Z</time>
      </trkpt>
      <trkpt lat="44.16231" lon="5.15013">
        <ele>620.19</ele>
        <time>2017-11-27T11:52:29Z</time>
      </trkpt>
      <trkpt lat="44.16233" lon="5.15008">
        <ele>620.19</ele>
        <time>2017-11-27T11:52:45Z</time>
      </trkpt>
      <trkpt lat="44.16232" lon="5.14998">
        <ele>617.78</ele>
        <time>2017-11-27T11:53:01Z</time>
      </trkpt>
      <trkpt lat="44.16232" lon="5.14987">
        <ele>616.34</ele>
        <time>2017-11-27T11:53:17Z</time>
      </trkpt>
      <trkpt lat="44.16234" lon="5.14967">
        <ele>614.42</ele>
        <time>2017-11-27T11:53:33Z</time>
      </trkpt>
      <trkpt lat="44.16236" lon="5.14948">
        <ele>612.5</ele>
        <time>2017-11-27T11:53:50Z</time>
      </trkpt>
      <trkpt lat="44.16236" lon="5.14932">
        <ele>610.57</ele>
        <time>2017-11-27T11:54:08Z</time>
      </trkpt>
      <trkpt lat="44.16237" lon="5.14913">
        <ele>608.65</ele>
        <time>2017-11-27T11:54:24Z</time>
      </trkpt>
      <trkpt lat="44.16243" lon="5.14893">
        <ele>607.21</ele>
        <time>2017-11-27T11:54:38Z</time>
      </trkpt>
      <trkpt lat="44.16247" lon="5.14881">
        <ele>605.29</ele>
        <time>2017-11-27T11:54:53Z</time>
      </trkpt>
      <trkpt lat="44.1625" lon="5.14865">
        <ele>602.88</ele>
        <time>2017-11-27T11:55:10Z</time>
      </trkpt>
      <trkpt lat="44.16253" lon="5.14847">
        <ele>600</ele>
        <time>2017-11-27T11:55:26Z</time>
      </trkpt>
      <trkpt lat="44.16252" lon="5.14829">
        <ele>597.12</ele>
        <time>2017-11-27T11:55:43Z</time>
      </trkpt>
      <trkpt lat="44.16249" lon="5.14812">
        <ele>595.19</ele>
        <time>2017-11-27T11:55:58Z</time>
      </trkpt>
      <trkpt lat="44.16252" lon="5.14796">
        <ele>593.75</ele>
        <time>2017-11-27T11:56:12Z</time>
      </trkpt>
      <trkpt lat="44.16249" lon="5.14779">
        <ele>591.35</ele>
        <time>2017-11-27T11:56:28Z</time>
      </trkpt>
      <trkpt lat="44.16246" lon="5.14759">
        <ele>588.95</ele>
        <time>2017-11-27T11:56:45Z</time>
      </trkpt>
      <trkpt lat="44.1625" lon="5.14745">
        <ele>587.5</ele>
        <time>2017-11-27T11:57:03Z</time>
      </trkpt>
      <trkpt lat="44.16251" lon="5.14729">
        <ele>585.1</ele>
        <time>2017-11-27T11:57:21Z</time>
      </trkpt>
      <trkpt lat="44.16253" lon="5.14718">
        <ele>583.18</ele>
        <time>2017-11-27T11:57:39Z</time>
      </trkpt>
      <trkpt lat="44.16257" lon="5.14709">
        <ele>581.73</ele>
        <time>2017-11-27T11:57:56Z</time>
      </trkpt>
      <trkpt lat="44.16262" lon="5.14698">
        <ele>579.81</ele>
        <time>2017-11-27T11:58:12Z</time>
      </trkpt>
      <trkpt lat="44.16268" lon="5.14688">
        <ele>578.85</ele>
        <time>2017-11-27T11:58:26Z</time>
      </trkpt>
      <trkpt lat="44.16273" lon="5.14676">
        <ele>577.89</ele>
        <time>2017-11-27T11:58:40Z</time>
      </trkpt>
      <trkpt lat="44.16282" lon="5.14656">
        <ele>577.41</ele>
        <time>2017-11-27T11:58:59Z</time>
      </trkpt>
      <trkpt lat="44.16287" lon="5.1464">
        <ele>576.93</ele>
        <time>2017-11-27T11:59:14Z</time>
      </trkpt>
      <trkpt lat="44.16287" lon="5.14634">
        <ele>576.93</ele>
        <time>2017-11-27T11:59:29Z</time>
      </trkpt>
      <trkpt lat="44.1628" lon="5.14625">
        <ele>575.49</ele>
        <time>2017-11-27T11:59:48Z</time>
      </trkpt>
      <trkpt lat="44.16276" lon="5.14617">
        <ele>573.56</ele>
        <time>2017-11-27T12:00:02Z</time>
      </trkpt>
      <trkpt lat="44.16273" lon="5.14606">
        <ele>572.12</ele>
        <time>2017-11-27T12:00:16Z</time>
      </trkpt>
      <trkpt lat="44.16268" lon="5.14599">
        <ele>570.68</ele>
        <time>2017-11-27T12:00:31Z</time>
      </trkpt>
      <trkpt lat="44.16264" lon="5.14593">
        <ele>570.2</ele>
        <time>2017-11-27T12:00:44Z</time>
      </trkpt>
      <trkpt lat="44.16259" lon="5.14586">
        <ele>568.28</ele>
        <time>2017-11-27T12:01:00Z</time>
      </trkpt>
      <trkpt lat="44.16253" lon="5.1458">
        <ele>567.32</ele>
        <time>2017-11-27T12:01:19Z</time>
      </trkpt>
      <trkpt lat="44.16246" lon="5.14575">
        <ele>565.39</ele>
        <time>2017-11-27T12:01:35Z</time>
      </trkpt>
      <trkpt lat="44.16239" lon="5.14576">
        <ele>563.95</ele>
        <time>2017-11-27T12:01:51Z</time>
      </trkpt>
      <trkpt lat="44.16233" lon="5.14571">
        <ele>562.03</ele>
        <time>2017-11-27T12:02:04Z</time>
      </trkpt>
      <trkpt lat="44.16229" lon="5.14561">
        <ele>561.07</ele>
        <time>2017-11-27T12:02:20Z</time>
      </trkpt>
      <trkpt lat="44.16223" lon="5.1455">
        <ele>560.59</ele>
        <time>2017-11-27T12:02:36Z</time>
      </trkpt>
      <trkpt lat="44.16222" lon="5.14539">
        <ele>560.11</ele>
        <time>2017-11-27T12:02:55Z</time>
      </trkpt>
      <trkpt lat="44.1623" lon="5.14544">
        <ele>557.7</ele>
        <time>2017-11-27T12:03:12Z</time>
      </trkpt>
      <trkpt lat="44.16237" lon="5.14551">
        <ele>555.78</ele>
        <time>2017-11-27T12:03:28Z</time>
      </trkpt>
      <trkpt lat="44.16239" lon="5.1455">
        <ele>554.34</ele>
        <time>2017-11-27T12:03:45Z</time>
      </trkpt>
      <trkpt lat="44.16242" lon="5.14544">
        <ele>552.9</ele>
        <time>2017-11-27T12:04:00Z</time>
      </trkpt>
      <trkpt lat="44.16238" lon="5.14535">
        <ele>550.97</ele>
        <time>2017-11-27T12:04:17Z</time>
      </trkpt>
      <trkpt lat="44.16234" lon="5.14525">
        <ele>549.53</ele>
        <time>2017-11-27T12:04:32Z</time>
      </trkpt>
      <trkpt lat="44.16234" lon="5.14522">
        <ele>548.09</ele>
        <time>2017-11-27T12:04:46Z</time>
      </trkpt>
      <trkpt lat="44.16238" lon="5.14524">
        <ele>546.17</ele>
        <time>2017-11-27T12:05:09Z</time>
      </trkpt>
      <trkpt lat="44.16245" lon="5.14523">
        <ele>544.24</ele>
        <time>2017-11-27T12:05:28Z</time>
      </trkpt>
      <trkpt lat="44.16251" lon="5.14529">
        <ele>541.84</ele>
        <time>2017-11-27T12:05:47Z</time>
      </trkpt>
      <trkpt lat="44.16254" lon="5.14536">
        <ele>539.92</ele>
        <time>2017-11-27T12:06:01Z</time>
      </trkpt>
      <trkpt lat="44.16259" lon="5.14533">
        <ele>538.48</ele>
        <time>2017-11-27T12:06:20Z</time>
      </trkpt>
      <trkpt lat="44.16256" lon="5.14522">
        <ele>537.99</ele>
        <time>2017-11-27T12:06:40Z</time>
      </trkpt>
      <trkpt lat="44.16257" lon="5.14516">
        <ele>536.07</ele>
        <time>2017-11-27T12:07:00Z</time>
      </trkpt>
      <trkpt lat="44.16262" lon="5.1451">
        <ele>534.15</ele>
        <time>2017-11-27T12:07:18Z</time>
      </trkpt>
      <trkpt lat="44.16264" lon="5.14512">
        <ele>532.71</ele>
        <time>2017-11-27T12:07:32Z</time>
      </trkpt>
      <trkpt lat="44.16266" lon="5.1451">
        <ele>529.82</ele>
        <time>2017-11-27T12:07:46Z</time>
      </trkpt>
      <trkpt lat="44.16266" lon="5.1451">
        <ele>533.19</ele>
        <time>2017-11-27T12:07:47Z</time>
      </trkpt>
      <trkpt lat="44.16271" lon="5.14503">
        <ele>529.82</ele>
        <time>2017-11-27T12:07:59Z</time>
      </trkpt>
      <trkpt lat="44.16279" lon="5.14494">
        <ele>525.98</ele>
        <time>2017-11-27T12:08:10Z</time>
      </trkpt>
      <trkpt lat="44.16283" lon="5.1448">
        <ele>524.06</ele>
        <time>2017-11-27T12:08:24Z</time>
      </trkpt>
      <trkpt lat="44.1629" lon="5.14465">
        <ele>521.17</ele>
        <time>2017-11-27T12:08:38Z</time>
      </trkpt>
      <trkpt lat="44.16304" lon="5.14456">
        <ele>518.29</ele>
        <time>2017-11-27T12:08:51Z</time>
      </trkpt>
      <trkpt lat="44.16321" lon="5.14436">
        <ele>516.37</ele>
        <time>2017-11-27T12:09:07Z</time>
      </trkpt>
      <trkpt lat="44.16334" lon="5.14423">
        <ele>516.37</ele>
        <time>2017-11-27T12:09:21Z</time>
      </trkpt>
      <trkpt lat="44.16335" lon="5.14416">
        <ele>517.81</ele>
        <time>2017-11-27T12:09:29Z</time>
      </trkpt>
      <trkpt lat="44.16336" lon="5.14414">
        <ele>516.37</ele>
        <time>2017-11-27T12:09:31Z</time>
      </trkpt>
      <trkpt lat="44.16335" lon="5.14403">
        <ele>513.48</ele>
        <time>2017-11-27T12:09:43Z</time>
      </trkpt>
      <trkpt lat="44.16334" lon="5.14388">
        <ele>510.12</ele>
        <time>2017-11-27T12:09:56Z</time>
      </trkpt>
      <trkpt lat="44.16331" lon="5.14376">
        <ele>507.23</ele>
        <time>2017-11-27T12:10:09Z</time>
      </trkpt>
      <trkpt lat="44.1633" lon="5.14361">
        <ele>503.87</ele>
        <time>2017-11-27T12:10:21Z</time>
      </trkpt>
      <trkpt lat="44.16329" lon="5.14342">
        <ele>501.95</ele>
        <time>2017-11-27T12:10:35Z</time>
      </trkpt>
      <trkpt lat="44.16328" lon="5.14328">
        <ele>498.58</ele>
        <time>2017-11-27T12:10:46Z</time>
      </trkpt>
      <trkpt lat="44.16324" lon="5.14316">
        <ele>495.7</ele>
        <time>2017-11-27T12:10:58Z</time>
      </trkpt>
      <trkpt lat="44.16324" lon="5.14303">
        <ele>495.22</ele>
        <time>2017-11-27T12:11:15Z</time>
      </trkpt>
      <trkpt lat="44.16323" lon="5.14296">
        <ele>493.77</ele>
        <time>2017-11-27T12:11:32Z</time>
      </trkpt>
      <trkpt lat="44.16322" lon="5.14291">
        <ele>492.81</ele>
        <time>2017-11-27T12:11:37Z</time>
      </trkpt>
      <trkpt lat="44.16318" lon="5.14275">
        <ele>489.45</ele>
        <time>2017-11-27T12:11:50Z</time>
      </trkpt>
      <trkpt lat="44.16314" lon="5.14258">
        <ele>486.08</ele>
        <time>2017-11-27T12:12:04Z</time>
      </trkpt>
      <trkpt lat="44.16312" lon="5.14243">
        <ele>483.2</ele>
        <time>2017-11-27T12:12:17Z</time>
      </trkpt>
      <trkpt lat="44.16312" lon="5.14226">
        <ele>479.84</ele>
        <time>2017-11-27T12:12:30Z</time>
      </trkpt>
      <trkpt lat="44.16314" lon="5.14213">
        <ele>476.47</ele>
        <time>2017-11-27T12:12:43Z</time>
      </trkpt>
      <trkpt lat="44.16315" lon="5.14199">
        <ele>473.59</ele>
        <time>2017-11-27T12:12:58Z</time>
      </trkpt>
      <trkpt lat="44.16319" lon="5.14193">
        <ele>470.22</ele>
        <time>2017-11-27T12:13:13Z</time>
      </trkpt>
      <trkpt lat="44.16321" lon="5.14185">
        <ele>467.34</ele>
        <time>2017-11-27T12:13:26Z</time>
      </trkpt>
      <trkpt lat="44.16322" lon="5.14173">
        <ele>463.97</ele>
        <time>2017-11-27T12:13:39Z</time>
      </trkpt>
      <trkpt lat="44.16324" lon="5.1416">
        <ele>461.09</ele>
        <time>2017-11-27T12:13:50Z</time>
      </trkpt>
      <trkpt lat="44.1632" lon="5.14152">
        <ele>459.17</ele>
        <time>2017-11-27T12:14:04Z</time>
      </trkpt>
      <trkpt lat="44.16314" lon="5.14142">
        <ele>456.28</ele>
        <time>2017-11-27T12:14:18Z</time>
      </trkpt>
      <trkpt lat="44.16312" lon="5.14133">
        <ele>452.92</ele>
        <time>2017-11-27T12:14:32Z</time>
      </trkpt>
      <trkpt lat="44.16316" lon="5.14127">
        <ele>452.44</ele>
        <time>2017-11-27T12:14:47Z</time>
      </trkpt>
      <trkpt lat="44.16314" lon="5.14129">
        <ele>451.96</ele>
        <time>2017-11-27T12:15:00Z</time>
      </trkpt>
      <trkpt lat="44.16312" lon="5.14137">
        <ele>455.32</ele>
        <time>2017-11-27T12:15:11Z</time>
      </trkpt>
      <trkpt lat="44.16316" lon="5.14143">
        <ele>458.69</ele>
        <time>2017-11-27T12:15:24Z</time>
      </trkpt>
      <trkpt lat="44.16316" lon="5.14156">
        <ele>461.09</ele>
        <time>2017-11-27T12:15:41Z</time>
      </trkpt>
      <trkpt lat="44.16315" lon="5.14167">
        <ele>463.97</ele>
        <time>2017-11-27T12:15:59Z</time>
      </trkpt>
      <trkpt lat="44.16317" lon="5.1418">
        <ele>466.38</ele>
        <time>2017-11-27T12:16:19Z</time>
      </trkpt>
      <trkpt lat="44.16321" lon="5.1419">
        <ele>467.34</ele>
        <time>2017-11-27T12:16:49Z</time>
      </trkpt>
      <trkpt lat="44.16322" lon="5.1418">
        <ele>464.93</ele>
        <time>2017-11-27T12:17:15Z</time>
      </trkpt>
      <trkpt lat="44.16322" lon="5.14169">
        <ele>462.05</ele>
        <time>2017-11-27T12:17:27Z</time>
      </trkpt>
      <trkpt lat="44.16322" lon="5.14152">
        <ele>458.69</ele>
        <time>2017-11-27T12:17:44Z</time>
      </trkpt>
      <trkpt lat="44.16326" lon="5.14145">
        <ele>457.24</ele>
        <time>2017-11-27T12:18:09Z</time>
      </trkpt>
      <trkpt lat="44.16332" lon="5.14142">
        <ele>454.36</ele>
        <time>2017-11-27T12:18:23Z</time>
      </trkpt>
      <trkpt lat="44.16326" lon="5.14135">
        <ele>451.48</ele>
        <time>2017-11-27T12:18:38Z</time>
      </trkpt>
      <trkpt lat="44.1633" lon="5.14123">
        <ele>450.52</ele>
        <time>2017-11-27T12:18:51Z</time>
      </trkpt>
      <trkpt lat="44.16333" lon="5.14119">
        <ele>450.03</ele>
        <time>2017-11-27T12:19:04Z</time>
      </trkpt>
      <trkpt lat="44.16331" lon="5.14117">
        <ele>450.52</ele>
        <time>2017-11-27T12:19:22Z</time>
      </trkpt>
      <trkpt lat="44.16331" lon="5.14115">
        <ele>450.03</ele>
        <time>2017-11-27T12:19:41Z</time>
      </trkpt>
      <trkpt lat="44.1633" lon="5.14117">
        <ele>450.03</ele>
        <time>2017-11-27T12:19:59Z</time>
      </trkpt>
      <trkpt lat="44.16329" lon="5.14115">
        <ele>451</ele>
        <time>2017-11-27T12:20:18Z</time>
      </trkpt>
      <trkpt lat="44.16329" lon="5.14115">
        <ele>451</ele>
        <time>2017-11-27T12:20:19Z</time>
      </trkpt>
      <trkpt lat="44.16327" lon="5.14114">
        <ele>450.03</ele>
        <time>2017-11-27T12:20:22Z</time>
      </trkpt>
      <trkpt lat="44.16327" lon="5.14109">
        <ele>449.07</ele>
        <time>2017-11-27T12:20:40Z</time>
      </trkpt>
      <trkpt lat="44.16328" lon="5.14103">
        <ele>446.67</ele>
        <time>2017-11-27T12:20:48Z</time>
      </trkpt>
      <trkpt lat="44.16328" lon="5.14097">
        <ele>446.67</ele>
        <time>2017-11-27T12:20:58Z</time>
      </trkpt>
      <trkpt lat="44.16328" lon="5.14095">
        <ele>445.23</ele>
        <time>2017-11-27T12:21:02Z</time>
      </trkpt>
      <trkpt lat="44.16329" lon="5.14085">
        <ele>442.82</ele>
        <time>2017-11-27T12:21:15Z</time>
      </trkpt>
      <trkpt lat="44.16327" lon="5.14085">
        <ele>442.82</ele>
        <time>2017-11-27T12:21:30Z</time>
      </trkpt>
      <trkpt lat="44.16327" lon="5.14086">
        <ele>442.82</ele>
        <time>2017-11-27T12:21:48Z</time>
      </trkpt>
      <trkpt lat="44.16324" lon="5.14084">
        <ele>442.34</ele>
        <time>2017-11-27T12:22:08Z</time>
      </trkpt>
      <trkpt lat="44.16326" lon="5.14088">
        <ele>442.34</ele>
        <time>2017-11-27T12:22:33Z</time>
      </trkpt>
      <trkpt lat="44.16325" lon="5.14085">
        <ele>442.34</ele>
        <time>2017-11-27T12:22:52Z</time>
      </trkpt>
      <trkpt lat="44.16325" lon="5.14085">
        <ele>442.34</ele>
        <time>2017-11-27T12:23:14Z</time>
      </trkpt>
      <trkpt lat="44.16325" lon="5.14085">
        <ele>444.27</ele>
        <time>2017-11-27T12:23:21Z</time>
      </trkpt>
      <trkpt lat="44.16327" lon="5.14085">
        <ele>443.31</ele>
        <time>2017-11-27T12:23:48Z</time>
      </trkpt>
      <trkpt lat="44.16328" lon="5.14089">
        <ele>443.31</ele>
        <time>2017-11-27T12:24:19Z</time>
      </trkpt>
      <trkpt lat="44.16327" lon="5.14084">
        <ele>443.79</ele>
        <time>2017-11-27T12:24:47Z</time>
      </trkpt>
      <trkpt lat="44.16326" lon="5.14079">
        <ele>443.79</ele>
        <time>2017-11-27T12:25:16Z</time>
      </trkpt>
      <trkpt lat="44.16329" lon="5.14081">
        <ele>443.79</ele>
        <time>2017-11-27T12:25:39Z</time>
      </trkpt>
      <trkpt lat="44.1633" lon="5.14082">
        <ele>444.27</ele>
        <time>2017-11-27T12:26:09Z</time>
      </trkpt>
      <trkpt lat="44.1633" lon="5.14082">
        <ele>444.27</ele>
        <time>2017-11-27T12:26:36Z</time>
      </trkpt>
      <trkpt lat="44.16328" lon="5.14081">
        <ele>445.71</ele>
        <time>2017-11-27T12:27:00Z</time>
      </trkpt>
      <trkpt lat="44.1633" lon="5.14083">
        <ele>445.71</ele>
        <time>2017-11-27T12:27:37Z</time>
      </trkpt>
      <trkpt lat="44.16328" lon="5.14083">
        <ele>446.19</ele>
        <time>2017-11-27T12:28:09Z</time>
      </trkpt>
      <trkpt lat="44.16329" lon="5.14083">
        <ele>446.19</ele>
        <time>2017-11-27T12:28:36Z</time>
      </trkpt>
      <trkpt lat="44.16327" lon="5.14081">
        <ele>446.19</ele>
        <time>2017-11-27T12:29:09Z</time>
      </trkpt>
      <trkpt lat="44.16328" lon="5.14083">
        <ele>446.19</ele>
        <time>2017-11-27T12:29:43Z</time>
      </trkpt>
      <trkpt lat="44.16325" lon="5.14083">
        <ele>446.67</ele>
        <time>2017-11-27T12:30:01Z</time>
      </trkpt>
      <trkpt lat="44.16326" lon="5.14084">
        <ele>447.15</ele>
        <time>2017-11-27T12:30:28Z</time>
      </trkpt>
      <trkpt lat="44.16328" lon="5.14082">
        <ele>447.15</ele>
        <time>2017-11-27T12:30:48Z</time>
      </trkpt>
      <trkpt lat="44.16317" lon="5.14079">
        <ele>447.15</ele>
        <time>2017-11-27T12:31:03Z</time>
      </trkpt>
      <trkpt lat="44.16304" lon="5.14076">
        <ele>447.63</ele>
        <time>2017-11-27T12:31:17Z</time>
      </trkpt>
      <trkpt lat="44.16293" lon="5.14074">
        <ele>447.63</ele>
        <time>2017-11-27T12:31:29Z</time>
      </trkpt>
      <trkpt lat="44.16281" lon="5.14072">
        <ele>448.11</ele>
        <time>2017-11-27T12:31:43Z</time>
      </trkpt>
      <trkpt lat="44.16265" lon="5.14068">
        <ele>448.59</ele>
        <time>2017-11-27T12:31:58Z</time>
      </trkpt>
      <trkpt lat="44.16253" lon="5.14066">
        <ele>449.07</ele>
        <time>2017-11-27T12:32:11Z</time>
      </trkpt>
      <trkpt lat="44.16239" lon="5.14062">
        <ele>450.03</ele>
        <time>2017-11-27T12:32:23Z</time>
      </trkpt>
      <trkpt lat="44.16226" lon="5.14066">
        <ele>451</ele>
        <time>2017-11-27T12:32:37Z</time>
      </trkpt>
      <trkpt lat="44.16218" lon="5.14075">
        <ele>452.44</ele>
        <time>2017-11-27T12:32:51Z</time>
      </trkpt>
      <trkpt lat="44.16212" lon="5.14087">
        <ele>453.4</ele>
        <time>2017-11-27T12:33:04Z</time>
      </trkpt>
      <trkpt lat="44.162" lon="5.14096">
        <ele>453.4</ele>
        <time>2017-11-27T12:33:19Z</time>
      </trkpt>
      <trkpt lat="44.16192" lon="5.14098">
        <ele>453.88</ele>
        <time>2017-11-27T12:33:28Z</time>
      </trkpt>
      <trkpt lat="44.16186" lon="5.14097">
        <ele>454.36</ele>
        <time>2017-11-27T12:33:33Z</time>
      </trkpt>
      <trkpt lat="44.16183" lon="5.14096">
        <ele>454.36</ele>
        <time>2017-11-27T12:33:36Z</time>
      </trkpt>
      <trkpt lat="44.16179" lon="5.14094">
        <ele>454.36</ele>
        <time>2017-11-27T12:33:39Z</time>
      </trkpt>
      <trkpt lat="44.16167" lon="5.14078">
        <ele>452.92</ele>
        <time>2017-11-27T12:33:53Z</time>
      </trkpt>
      <trkpt lat="44.16152" lon="5.1406">
        <ele>451.48</ele>
        <time>2017-11-27T12:34:11Z</time>
      </trkpt>
      <trkpt lat="44.16141" lon="5.14049">
        <ele>451.48</ele>
        <time>2017-11-27T12:34:25Z</time>
      </trkpt>
      <trkpt lat="44.16128" lon="5.14028">
        <ele>451</ele>
        <time>2017-11-27T12:34:42Z</time>
      </trkpt>
      <trkpt lat="44.16119" lon="5.1402">
        <ele>452.44</ele>
        <time>2017-11-27T12:34:50Z</time>
      </trkpt>
      <trkpt lat="44.16108" lon="5.14007">
        <ele>453.88</ele>
        <time>2017-11-27T12:35:04Z</time>
      </trkpt>
      <trkpt lat="44.16096" lon="5.13999">
        <ele>455.8</ele>
        <time>2017-11-27T12:35:20Z</time>
      </trkpt>
      <trkpt lat="44.16083" lon="5.13992">
        <ele>457.72</ele>
        <time>2017-11-27T12:35:36Z</time>
      </trkpt>
      <trkpt lat="44.16081" lon="5.13991">
        <ele>458.69</ele>
        <time>2017-11-27T12:35:39Z</time>
      </trkpt>
      <trkpt lat="44.16076" lon="5.13987">
        <ele>459.17</ele>
        <time>2017-11-27T12:35:44Z</time>
      </trkpt>
      <trkpt lat="44.1607" lon="5.13968">
        <ele>460.61</ele>
        <time>2017-11-27T12:36:00Z</time>
      </trkpt>
      <trkpt lat="44.16069" lon="5.13963">
        <ele>461.09</ele>
        <time>2017-11-27T12:36:04Z</time>
      </trkpt>
      <trkpt lat="44.16062" lon="5.13945">
        <ele>463.01</ele>
        <time>2017-11-27T12:36:18Z</time>
      </trkpt>
      <trkpt lat="44.16051" lon="5.13929">
        <ele>464.93</ele>
        <time>2017-11-27T12:36:32Z</time>
      </trkpt>
      <trkpt lat="44.16045" lon="5.13911">
        <ele>465.9</ele>
        <time>2017-11-27T12:36:44Z</time>
      </trkpt>
      <trkpt lat="44.16039" lon="5.13896">
        <ele>466.38</ele>
        <time>2017-11-27T12:36:56Z</time>
      </trkpt>
      <trkpt lat="44.16027" lon="5.1388">
        <ele>466.38</ele>
        <time>2017-11-27T12:37:11Z</time>
      </trkpt>
      <trkpt lat="44.16016" lon="5.13863">
        <ele>466.38</ele>
        <time>2017-11-27T12:37:25Z</time>
      </trkpt>
      <trkpt lat="44.16009" lon="5.13843">
        <ele>466.38</ele>
        <time>2017-11-27T12:37:38Z</time>
      </trkpt>
      <trkpt lat="44.15998" lon="5.13825">
        <ele>466.38</ele>
        <time>2017-11-27T12:37:55Z</time>
      </trkpt>
      <trkpt lat="44.15993" lon="5.13817">
        <ele>466.38</ele>
        <time>2017-11-27T12:38:01Z</time>
      </trkpt>
      <trkpt lat="44.15987" lon="5.13807">
        <ele>466.38</ele>
        <time>2017-11-27T12:38:09Z</time>
      </trkpt>
      <trkpt lat="44.15973" lon="5.13788">
        <ele>464.93</ele>
        <time>2017-11-27T12:38:24Z</time>
      </trkpt>
      <trkpt lat="44.15959" lon="5.13769">
        <ele>463.97</ele>
        <time>2017-11-27T12:38:40Z</time>
      </trkpt>
      <trkpt lat="44.15941" lon="5.13756">
        <ele>463.97</ele>
        <time>2017-11-27T12:38:56Z</time>
      </trkpt>
      <trkpt lat="44.15922" lon="5.13745">
        <ele>463.97</ele>
        <time>2017-11-27T12:39:11Z</time>
      </trkpt>
      <trkpt lat="44.15915" lon="5.13742">
        <ele>464.93</ele>
        <time>2017-11-27T12:39:17Z</time>
      </trkpt>
      <trkpt lat="44.15902" lon="5.13738">
        <ele>465.42</ele>
        <time>2017-11-27T12:39:31Z</time>
      </trkpt>
      <trkpt lat="44.15886" lon="5.13737">
        <ele>465.42</ele>
        <time>2017-11-27T12:39:44Z</time>
      </trkpt>
      <trkpt lat="44.15869" lon="5.1374">
        <ele>465.42</ele>
        <time>2017-11-27T12:39:58Z</time>
      </trkpt>
      <trkpt lat="44.15848" lon="5.13739">
        <ele>465.42</ele>
        <time>2017-11-27T12:40:15Z</time>
      </trkpt>
      <trkpt lat="44.15827" lon="5.13738">
        <ele>465.42</ele>
        <time>2017-11-27T12:40:32Z</time>
      </trkpt>
      <trkpt lat="44.15823" lon="5.13737">
        <ele>465.42</ele>
        <time>2017-11-27T12:40:36Z</time>
      </trkpt>
      <trkpt lat="44.15804" lon="5.13734">
        <ele>463.97</ele>
        <time>2017-11-27T12:40:52Z</time>
      </trkpt>
      <trkpt lat="44.15801" lon="5.13734">
        <ele>463.97</ele>
        <time>2017-11-27T12:40:54Z</time>
      </trkpt>
      <trkpt lat="44.15799" lon="5.13735">
        <ele>463.97</ele>
        <time>2017-11-27T12:40:56Z</time>
      </trkpt>
      <trkpt lat="44.1578" lon="5.13739">
        <ele>461.09</ele>
        <time>2017-11-27T12:41:13Z</time>
      </trkpt>
      <trkpt lat="44.15763" lon="5.13743">
        <ele>460.13</ele>
        <time>2017-11-27T12:41:28Z</time>
      </trkpt>
      <trkpt lat="44.15752" lon="5.13744">
        <ele>460.61</ele>
        <time>2017-11-27T12:41:41Z</time>
      </trkpt>
      <trkpt lat="44.15746" lon="5.13749">
        <ele>458.69</ele>
        <time>2017-11-27T12:41:47Z</time>
      </trkpt>
      <trkpt lat="44.15736" lon="5.13761">
        <ele>456.28</ele>
        <time>2017-11-27T12:42:01Z</time>
      </trkpt>
      <trkpt lat="44.15735" lon="5.13762">
        <ele>456.76</ele>
        <time>2017-11-27T12:42:03Z</time>
      </trkpt>
      <trkpt lat="44.15735" lon="5.13773">
        <ele>456.28</ele>
        <time>2017-11-27T12:42:14Z</time>
      </trkpt>
      <trkpt lat="44.15735" lon="5.13777">
        <ele>454.84</ele>
        <time>2017-11-27T12:42:17Z</time>
      </trkpt>
      <trkpt lat="44.1573" lon="5.13795">
        <ele>452.92</ele>
        <time>2017-11-27T12:42:30Z</time>
      </trkpt>
      <trkpt lat="44.15719" lon="5.13821">
        <ele>451.96</ele>
        <time>2017-11-27T12:42:48Z</time>
      </trkpt>
      <trkpt lat="44.15708" lon="5.13835">
        <ele>451</ele>
        <time>2017-11-27T12:43:01Z</time>
      </trkpt>
      <trkpt lat="44.157" lon="5.13843">
        <ele>450.03</ele>
        <time>2017-11-27T12:43:14Z</time>
      </trkpt>
      <trkpt lat="44.15688" lon="5.13859">
        <ele>448.11</ele>
        <time>2017-11-27T12:43:29Z</time>
      </trkpt>
      <trkpt lat="44.15682" lon="5.13883">
        <ele>446.67</ele>
        <time>2017-11-27T12:43:47Z</time>
      </trkpt>
      <trkpt lat="44.1568" lon="5.13893">
        <ele>446.67</ele>
        <time>2017-11-27T12:43:55Z</time>
      </trkpt>
      <trkpt lat="44.15674" lon="5.13918">
        <ele>447.15</ele>
        <time>2017-11-27T12:44:10Z</time>
      </trkpt>
      <trkpt lat="44.15665" lon="5.13926">
        <ele>444.75</ele>
        <time>2017-11-27T12:44:21Z</time>
      </trkpt>
      <trkpt lat="44.1566" lon="5.13911">
        <ele>443.79</ele>
        <time>2017-11-27T12:44:36Z</time>
      </trkpt>
      <trkpt lat="44.15659" lon="5.13909">
        <ele>442.34</ele>
        <time>2017-11-27T12:44:38Z</time>
      </trkpt>
      <trkpt lat="44.15655" lon="5.13889">
        <ele>439.94</ele>
        <time>2017-11-27T12:44:53Z</time>
      </trkpt>
      <trkpt lat="44.1565" lon="5.13887">
        <ele>438.5</ele>
        <time>2017-11-27T12:45:04Z</time>
      </trkpt>
      <trkpt lat="44.15644" lon="5.13909">
        <ele>436.58</ele>
        <time>2017-11-27T12:45:21Z</time>
      </trkpt>
      <trkpt lat="44.15638" lon="5.13938">
        <ele>433.69</ele>
        <time>2017-11-27T12:45:40Z</time>
      </trkpt>
      <trkpt lat="44.15642" lon="5.13955">
        <ele>432.25</ele>
        <time>2017-11-27T12:45:53Z</time>
      </trkpt>
      <trkpt lat="44.15659" lon="5.13982">
        <ele>429.37</ele>
        <time>2017-11-27T12:46:14Z</time>
      </trkpt>
      <trkpt lat="44.15671" lon="5.13998">
        <ele>427.44</ele>
        <time>2017-11-27T12:46:29Z</time>
      </trkpt>
      <trkpt lat="44.15682" lon="5.14013">
        <ele>425.52</ele>
        <time>2017-11-27T12:46:41Z</time>
      </trkpt>
      <trkpt lat="44.15684" lon="5.14014">
        <ele>425.04</ele>
        <time>2017-11-27T12:46:43Z</time>
      </trkpt>
      <trkpt lat="44.1569" lon="5.14022">
        <ele>424.08</ele>
        <time>2017-11-27T12:46:50Z</time>
      </trkpt>
      <trkpt lat="44.15682" lon="5.14031">
        <ele>422.64</ele>
        <time>2017-11-27T12:47:04Z</time>
      </trkpt>
      <trkpt lat="44.15667" lon="5.14029">
        <ele>419.27</ele>
        <time>2017-11-27T12:47:19Z</time>
      </trkpt>
      <trkpt lat="44.15666" lon="5.14032">
        <ele>419.75</ele>
        <time>2017-11-27T12:47:23Z</time>
      </trkpt>
      <trkpt lat="44.1566" lon="5.1405">
        <ele>417.35</ele>
        <time>2017-11-27T12:47:34Z</time>
      </trkpt>
      <trkpt lat="44.15656" lon="5.14065">
        <ele>416.87</ele>
        <time>2017-11-27T12:47:43Z</time>
      </trkpt>
      <trkpt lat="44.15645" lon="5.14091">
        <ele>415.91</ele>
        <time>2017-11-27T12:48:00Z</time>
      </trkpt>
      <trkpt lat="44.15636" lon="5.14113">
        <ele>415.91</ele>
        <time>2017-11-27T12:48:16Z</time>
      </trkpt>
      <trkpt lat="44.15627" lon="5.14118">
        <ele>415.43</ele>
        <time>2017-11-27T12:48:25Z</time>
      </trkpt>
      <trkpt lat="44.15622" lon="5.14118">
        <ele>417.35</ele>
        <time>2017-11-27T12:48:29Z</time>
      </trkpt>
      <trkpt lat="44.15601" lon="5.14108">
        <ele>415.43</ele>
        <time>2017-11-27T12:48:47Z</time>
      </trkpt>
      <trkpt lat="44.15589" lon="5.14102">
        <ele>414.47</ele>
        <time>2017-11-27T12:48:58Z</time>
      </trkpt>
      <trkpt lat="44.1557" lon="5.1409">
        <ele>413.5</ele>
        <time>2017-11-27T12:49:15Z</time>
      </trkpt>
      <trkpt lat="44.15546" lon="5.1407">
        <ele>413.02</ele>
        <time>2017-11-27T12:49:35Z</time>
      </trkpt>
      <trkpt lat="44.15526" lon="5.14054">
        <ele>412.06</ele>
        <time>2017-11-27T12:49:53Z</time>
      </trkpt>
      <trkpt lat="44.15507" lon="5.14045">
        <ele>411.1</ele>
        <time>2017-11-27T12:50:09Z</time>
      </trkpt>
      <trkpt lat="44.15485" lon="5.14038">
        <ele>411.1</ele>
        <time>2017-11-27T12:50:26Z</time>
      </trkpt>
      <trkpt lat="44.15459" lon="5.14029">
        <ele>410.14</ele>
        <time>2017-11-27T12:50:47Z</time>
      </trkpt>
      <trkpt lat="44.1544" lon="5.1402">
        <ele>410.14</ele>
        <time>2017-11-27T12:51:04Z</time>
      </trkpt>
      <trkpt lat="44.15421" lon="5.14011">
        <ele>409.18</ele>
        <time>2017-11-27T12:51:20Z</time>
      </trkpt>
      <trkpt lat="44.1541" lon="5.14008">
        <ele>408.22</ele>
        <time>2017-11-27T12:51:30Z</time>
      </trkpt>
      <trkpt lat="44.15387" lon="5.14006">
        <ele>407.26</ele>
        <time>2017-11-27T12:51:49Z</time>
      </trkpt>
      <trkpt lat="44.15371" lon="5.14003">
        <ele>406.77</ele>
        <time>2017-11-27T12:52:02Z</time>
      </trkpt>
      <trkpt lat="44.15359" lon="5.14">
        <ele>405.81</ele>
        <time>2017-11-27T12:52:12Z</time>
      </trkpt>
      <trkpt lat="44.1534" lon="5.13991">
        <ele>405.81</ele>
        <time>2017-11-27T12:52:27Z</time>
      </trkpt>
      <trkpt lat="44.1532" lon="5.13978">
        <ele>404.85</ele>
        <time>2017-11-27T12:52:43Z</time>
      </trkpt>
      <trkpt lat="44.15299" lon="5.13967">
        <ele>403.89</ele>
        <time>2017-11-27T12:53:00Z</time>
      </trkpt>
      <trkpt lat="44.15278" lon="5.13957">
        <ele>403.41</ele>
        <time>2017-11-27T12:53:17Z</time>
      </trkpt>
      <trkpt lat="44.15263" lon="5.13953">
        <ele>402.93</ele>
        <time>2017-11-27T12:53:31Z</time>
      </trkpt>
      <trkpt lat="44.15242" lon="5.1395">
        <ele>401.97</ele>
        <time>2017-11-27T12:53:49Z</time>
      </trkpt>
      <trkpt lat="44.15224" lon="5.13948">
        <ele>401.97</ele>
        <time>2017-11-27T12:54:04Z</time>
      </trkpt>
      <trkpt lat="44.15202" lon="5.13942">
        <ele>401.01</ele>
        <time>2017-11-27T12:54:21Z</time>
      </trkpt>
      <trkpt lat="44.15184" lon="5.13925">
        <ele>399.57</ele>
        <time>2017-11-27T12:54:36Z</time>
      </trkpt>
      <trkpt lat="44.1517" lon="5.13899">
        <ele>398.6</ele>
        <time>2017-11-27T12:54:54Z</time>
      </trkpt>
      <trkpt lat="44.15159" lon="5.13866">
        <ele>397.64</ele>
        <time>2017-11-27T12:55:14Z</time>
      </trkpt>
      <trkpt lat="44.15152" lon="5.13832">
        <ele>397.64</ele>
        <time>2017-11-27T12:55:34Z</time>
      </trkpt>
      <trkpt lat="44.15151" lon="5.13819">
        <ele>396.2</ele>
        <time>2017-11-27T12:55:41Z</time>
      </trkpt>
      <trkpt lat="44.15151" lon="5.13792">
        <ele>395.24</ele>
        <time>2017-11-27T12:55:57Z</time>
      </trkpt>
      <trkpt lat="44.1515" lon="5.13776">
        <ele>394.76</ele>
        <time>2017-11-27T12:56:06Z</time>
      </trkpt>
      <trkpt lat="44.1515" lon="5.13758">
        <ele>395.24</ele>
        <time>2017-11-27T12:56:16Z</time>
      </trkpt>
      <trkpt lat="44.15147" lon="5.13733">
        <ele>392.36</ele>
        <time>2017-11-27T12:56:32Z</time>
      </trkpt>
      <trkpt lat="44.15148" lon="5.13699">
        <ele>390.43</ele>
        <time>2017-11-27T12:56:51Z</time>
      </trkpt>
      <trkpt lat="44.15145" lon="5.13664">
        <ele>390.43</ele>
        <time>2017-11-27T12:57:10Z</time>
      </trkpt>
      <trkpt lat="44.15137" lon="5.13626">
        <ele>388.03</ele>
        <time>2017-11-27T12:57:32Z</time>
      </trkpt>
      <trkpt lat="44.15124" lon="5.13599">
        <ele>387.07</ele>
        <time>2017-11-27T12:57:49Z</time>
      </trkpt>
      <trkpt lat="44.15109" lon="5.13573">
        <ele>385.63</ele>
        <time>2017-11-27T12:58:07Z</time>
      </trkpt>
      <trkpt lat="44.151" lon="5.13555">
        <ele>385.63</ele>
        <time>2017-11-27T12:58:20Z</time>
      </trkpt>
      <trkpt lat="44.15091" lon="5.13535">
        <ele>385.15</ele>
        <time>2017-11-27T12:58:33Z</time>
      </trkpt>
      <trkpt lat="44.15091" lon="5.13533">
        <ele>385.15</ele>
        <time>2017-11-27T12:58:34Z</time>
      </trkpt>
      <trkpt lat="44.15079" lon="5.13508">
        <ele>384.66</ele>
        <time>2017-11-27T12:58:50Z</time>
      </trkpt>
      <trkpt lat="44.15074" lon="5.1348">
        <ele>384.18</ele>
        <time>2017-11-27T12:59:06Z</time>
      </trkpt>
      <trkpt lat="44.15066" lon="5.13455">
        <ele>383.7</ele>
        <time>2017-11-27T12:59:22Z</time>
      </trkpt>
      <trkpt lat="44.15065" lon="5.13447">
        <ele>383.7</ele>
        <time>2017-11-27T12:59:35Z</time>
      </trkpt>
      <trkpt lat="44.15065" lon="5.13448">
        <ele>383.7</ele>
        <time>2017-11-27T12:59:47Z</time>
      </trkpt>
      <trkpt lat="44.15067" lon="5.13452">
        <ele>385.15</ele>
        <time>2017-11-27T13:00:02Z</time>
      </trkpt>
      <trkpt lat="44.1507" lon="5.13453">
        <ele>385.15</ele>
        <time>2017-11-27T13:00:27Z</time>
      </trkpt>
      <trkpt lat="44.15067" lon="5.1345">
        <ele>385.15</ele>
        <time>2017-11-27T13:00:46Z</time>
      </trkpt>
      <trkpt lat="44.15066" lon="5.1345">
        <ele>383.7</ele>
        <time>2017-11-27T13:01:01Z</time>
      </trkpt>
      <trkpt lat="44.15065" lon="5.13449">
        <ele>387.07</ele>
        <time>2017-11-27T13:01:04Z</time>
      </trkpt>
      <trkpt lat="44.15065" lon="5.13447">
        <ele>384.66</ele>
        <time>2017-11-27T13:01:29Z</time>
      </trkpt>
      <trkpt lat="44.15065" lon="5.13447">
        <ele>385.15</ele>
        <time>2017-11-27T13:01:41Z</time>
      </trkpt>
      <trkpt lat="44.15065" lon="5.13447">
        <ele>385.15</ele>
        <time>2017-11-27T13:02:05Z</time>
      </trkpt>
      <trkpt lat="44.15067" lon="5.13446">
        <ele>383.7</ele>
        <time>2017-11-27T13:02:28Z</time>
      </trkpt>
      <trkpt lat="44.15065" lon="5.13448">
        <ele>383.22</ele>
        <time>2017-11-27T13:02:54Z</time>
      </trkpt>
      <trkpt lat="44.15065" lon="5.13449">
        <ele>383.22</ele>
        <time>2017-11-27T13:03:18Z</time>
      </trkpt>
      <trkpt lat="44.15069" lon="5.13446">
        <ele>383.22</ele>
        <time>2017-11-27T13:03:45Z</time>
      </trkpt>
      <trkpt lat="44.15063" lon="5.13442">
        <ele>383.22</ele>
        <time>2017-11-27T13:04:12Z</time>
      </trkpt>
      <trkpt lat="44.15069" lon="5.13447">
        <ele>383.22</ele>
        <time>2017-11-27T13:04:57Z</time>
      </trkpt>
      <trkpt lat="44.15067" lon="5.13446">
        <ele>383.22</ele>
        <time>2017-11-27T13:05:19Z</time>
      </trkpt>
      <trkpt lat="44.15061" lon="5.13437">
        <ele>383.22</ele>
        <time>2017-11-27T13:05:38Z</time>
      </trkpt>
      <trkpt lat="44.15049" lon="5.13415">
        <ele>382.26</ele>
        <time>2017-11-27T13:05:55Z</time>
      </trkpt>
      <trkpt lat="44.15043" lon="5.13402">
        <ele>381.78</ele>
        <time>2017-11-27T13:06:05Z</time>
      </trkpt>
      <trkpt lat="44.15039" lon="5.13402">
        <ele>382.74</ele>
        <time>2017-11-27T13:06:08Z</time>
      </trkpt>
      <trkpt lat="44.15014" lon="5.13403">
        <ele>384.66</ele>
        <time>2017-11-27T13:06:28Z</time>
      </trkpt>
      <trkpt lat="44.15005" lon="5.134">
        <ele>385.63</ele>
        <time>2017-11-27T13:06:35Z</time>
      </trkpt>
      <trkpt lat="44.14998" lon="5.13405">
        <ele>386.59</ele>
        <time>2017-11-27T13:06:44Z</time>
      </trkpt>
      <trkpt lat="44.14988" lon="5.13407">
        <ele>386.59</ele>
        <time>2017-11-27T13:06:57Z</time>
      </trkpt>
      <trkpt lat="44.14976" lon="5.13408">
        <ele>389.47</ele>
        <time>2017-11-27T13:07:09Z</time>
      </trkpt>
      <trkpt lat="44.14962" lon="5.13408">
        <ele>391.39</ele>
        <time>2017-11-27T13:07:24Z</time>
      </trkpt>
      <trkpt lat="44.14946" lon="5.13406">
        <ele>393.32</ele>
        <time>2017-11-27T13:07:39Z</time>
      </trkpt>
      <trkpt lat="44.1493" lon="5.13409">
        <ele>395.24</ele>
        <time>2017-11-27T13:07:54Z</time>
      </trkpt>
      <trkpt lat="44.14915" lon="5.13413">
        <ele>398.6</ele>
        <time>2017-11-27T13:08:09Z</time>
      </trkpt>
      <trkpt lat="44.14904" lon="5.13418">
        <ele>399.57</ele>
        <time>2017-11-27T13:08:22Z</time>
      </trkpt>
      <trkpt lat="44.14892" lon="5.13431">
        <ele>401.49</ele>
        <time>2017-11-27T13:08:36Z</time>
      </trkpt>
      <trkpt lat="44.14875" lon="5.13451">
        <ele>404.85</ele>
        <time>2017-11-27T13:08:54Z</time>
      </trkpt>
      <trkpt lat="44.14864" lon="5.13459">
        <ele>407.26</ele>
        <time>2017-11-27T13:09:07Z</time>
      </trkpt>
      <trkpt lat="44.14849" lon="5.13467">
        <ele>409.66</ele>
        <time>2017-11-27T13:09:21Z</time>
      </trkpt>
      <trkpt lat="44.14836" lon="5.13482">
        <ele>412.06</ele>
        <time>2017-11-27T13:09:38Z</time>
      </trkpt>
      <trkpt lat="44.14822" lon="5.13485">
        <ele>413.98</ele>
        <time>2017-11-27T13:09:51Z</time>
      </trkpt>
      <trkpt lat="44.14805" lon="5.13488">
        <ele>416.87</ele>
        <time>2017-11-27T13:10:07Z</time>
      </trkpt>
      <trkpt lat="44.14793" lon="5.13487">
        <ele>419.27</ele>
        <time>2017-11-27T13:10:20Z</time>
      </trkpt>
      <trkpt lat="44.1478" lon="5.1349">
        <ele>421.68</ele>
        <time>2017-11-27T13:10:35Z</time>
      </trkpt>
      <trkpt lat="44.14776" lon="5.1349">
        <ele>422.64</ele>
        <time>2017-11-27T13:10:40Z</time>
      </trkpt>
      <trkpt lat="44.14756" lon="5.13487">
        <ele>425.52</ele>
        <time>2017-11-27T13:10:58Z</time>
      </trkpt>
      <trkpt lat="44.14736" lon="5.1349">
        <ele>427.92</ele>
        <time>2017-11-27T13:11:13Z</time>
      </trkpt>
      <trkpt lat="44.14722" lon="5.13493">
        <ele>430.81</ele>
        <time>2017-11-27T13:11:27Z</time>
      </trkpt>
      <trkpt lat="44.14712" lon="5.13487">
        <ele>434.17</ele>
        <time>2017-11-27T13:11:42Z</time>
      </trkpt>
      <trkpt lat="44.14702" lon="5.13481">
        <ele>437.54</ele>
        <time>2017-11-27T13:11:56Z</time>
      </trkpt>
      <trkpt lat="44.14688" lon="5.13473">
        <ele>440.42</ele>
        <time>2017-11-27T13:12:11Z</time>
      </trkpt>
      <trkpt lat="44.14667" lon="5.13468">
        <ele>443.31</ele>
        <time>2017-11-27T13:12:27Z</time>
      </trkpt>
      <trkpt lat="44.14652" lon="5.13463">
        <ele>445.71</ele>
        <time>2017-11-27T13:12:43Z</time>
      </trkpt>
      <trkpt lat="44.14634" lon="5.13454">
        <ele>446.67</ele>
        <time>2017-11-27T13:12:57Z</time>
      </trkpt>
      <trkpt lat="44.14632" lon="5.13454">
        <ele>445.71</ele>
        <time>2017-11-27T13:12:58Z</time>
      </trkpt>
      <trkpt lat="44.14621" lon="5.13458">
        <ele>445.23</ele>
        <time>2017-11-27T13:13:11Z</time>
      </trkpt>
      <trkpt lat="44.14616" lon="5.13457">
        <ele>445.23</ele>
        <time>2017-11-27T13:13:23Z</time>
      </trkpt>
      <trkpt lat="44.14614" lon="5.13442">
        <ele>444.75</ele>
        <time>2017-11-27T13:14:14Z</time>
      </trkpt>
      <trkpt lat="44.14615" lon="5.13441">
        <ele>445.23</ele>
        <time>2017-11-27T13:14:57Z</time>
      </trkpt>
      <trkpt lat="44.14615" lon="5.13445">
        <ele>445.23</ele>
        <time>2017-11-27T13:15:18Z</time>
      </trkpt>
      <trkpt lat="44.14613" lon="5.13448">
        <ele>446.67</ele>
        <time>2017-11-27T13:15:33Z</time>
      </trkpt>
      <trkpt lat="44.14612" lon="5.13447">
        <ele>447.15</ele>
        <time>2017-11-27T13:15:46Z</time>
      </trkpt>
      <trkpt lat="44.14611" lon="5.13446">
        <ele>447.63</ele>
        <time>2017-11-27T13:16:09Z</time>
      </trkpt>
      <trkpt lat="44.1461" lon="5.13447">
        <ele>448.11</ele>
        <time>2017-11-27T13:16:23Z</time>
      </trkpt>
      <trkpt lat="44.14614" lon="5.13442">
        <ele>448.11</ele>
        <time>2017-11-27T13:16:49Z</time>
      </trkpt>
      <trkpt lat="44.14603" lon="5.13448">
        <ele>448.59</ele>
        <time>2017-11-27T13:17:08Z</time>
      </trkpt>
      <trkpt lat="44.14598" lon="5.1345">
        <ele>448.59</ele>
        <time>2017-11-27T13:17:13Z</time>
      </trkpt>
      <trkpt lat="44.14578" lon="5.13442">
        <ele>446.67</ele>
        <time>2017-11-27T13:17:30Z</time>
      </trkpt>
      <trkpt lat="44.14559" lon="5.13433">
        <ele>446.19</ele>
        <time>2017-11-27T13:17:46Z</time>
      </trkpt>
      <trkpt lat="44.1454" lon="5.13427">
        <ele>446.19</ele>
        <time>2017-11-27T13:18:01Z</time>
      </trkpt>
      <trkpt lat="44.14535" lon="5.13424">
        <ele>448.11</ele>
        <time>2017-11-27T13:18:06Z</time>
      </trkpt>
      <trkpt lat="44.14521" lon="5.1342">
        <ele>448.59</ele>
        <time>2017-11-27T13:18:19Z</time>
      </trkpt>
      <trkpt lat="44.14512" lon="5.13419">
        <ele>449.55</ele>
        <time>2017-11-27T13:18:27Z</time>
      </trkpt>
      <trkpt lat="44.1449" lon="5.13419">
        <ele>449.55</ele>
        <time>2017-11-27T13:18:44Z</time>
      </trkpt>
      <trkpt lat="44.14476" lon="5.1342">
        <ele>449.55</ele>
        <time>2017-11-27T13:18:58Z</time>
      </trkpt>
      <trkpt lat="44.14459" lon="5.13423">
        <ele>449.55</ele>
        <time>2017-11-27T13:19:13Z</time>
      </trkpt>
      <trkpt lat="44.14449" lon="5.13424">
        <ele>450.03</ele>
        <time>2017-11-27T13:19:21Z</time>
      </trkpt>
      <trkpt lat="44.14431" lon="5.13437">
        <ele>451.96</ele>
        <time>2017-11-27T13:19:37Z</time>
      </trkpt>
      <trkpt lat="44.14425" lon="5.1345">
        <ele>452.92</ele>
        <time>2017-11-27T13:19:45Z</time>
      </trkpt>
      <trkpt lat="44.14422" lon="5.13453">
        <ele>454.36</ele>
        <time>2017-11-27T13:19:47Z</time>
      </trkpt>
      <trkpt lat="44.14416" lon="5.1347">
        <ele>455.8</ele>
        <time>2017-11-27T13:20:02Z</time>
      </trkpt>
      <trkpt lat="44.14412" lon="5.13473">
        <ele>456.76</ele>
        <time>2017-11-27T13:20:07Z</time>
      </trkpt>
      <trkpt lat="44.14393" lon="5.13464">
        <ele>458.21</ele>
        <time>2017-11-27T13:20:23Z</time>
      </trkpt>
      <trkpt lat="44.14388" lon="5.13459">
        <ele>459.17</ele>
        <time>2017-11-27T13:20:29Z</time>
      </trkpt>
      <trkpt lat="44.14369" lon="5.13459">
        <ele>462.53</ele>
        <time>2017-11-27T13:20:46Z</time>
      </trkpt>
      <trkpt lat="44.14361" lon="5.13476">
        <ele>463.49</ele>
        <time>2017-11-27T13:21:01Z</time>
      </trkpt>
      <trkpt lat="44.14355" lon="5.13489">
        <ele>462.05</ele>
        <time>2017-11-27T13:21:13Z</time>
      </trkpt>
      <trkpt lat="44.14354" lon="5.13488">
        <ele>462.05</ele>
        <time>2017-11-27T13:21:34Z</time>
      </trkpt>
      <trkpt lat="44.14353" lon="5.13488">
        <ele>462.05</ele>
        <time>2017-11-27T13:21:53Z</time>
      </trkpt>
      <trkpt lat="44.14352" lon="5.13489">
        <ele>461.57</ele>
        <time>2017-11-27T13:22:14Z</time>
      </trkpt>
      <trkpt lat="44.14353" lon="5.13492">
        <ele>461.57</ele>
        <time>2017-11-27T13:22:39Z</time>
      </trkpt>
      <trkpt lat="44.14351" lon="5.13505">
        <ele>459.65</ele>
        <time>2017-11-27T13:22:51Z</time>
      </trkpt>
      <trkpt lat="44.14349" lon="5.13513">
        <ele>457.24</ele>
        <time>2017-11-27T13:22:58Z</time>
      </trkpt>
      <trkpt lat="44.1434" lon="5.13517">
        <ele>456.28</ele>
        <time>2017-11-27T13:23:11Z</time>
      </trkpt>
      <trkpt lat="44.14337" lon="5.13518">
        <ele>455.8</ele>
        <time>2017-11-27T13:23:14Z</time>
      </trkpt>
      <trkpt lat="44.14321" lon="5.13513">
        <ele>455.8</ele>
        <time>2017-11-27T13:23:28Z</time>
      </trkpt>
      <trkpt lat="44.14305" lon="5.13505">
        <ele>455.8</ele>
        <time>2017-11-27T13:23:45Z</time>
      </trkpt>
      <trkpt lat="44.14285" lon="5.13501">
        <ele>455.8</ele>
        <time>2017-11-27T13:24:02Z</time>
      </trkpt>
      <trkpt lat="44.14263" lon="5.13501">
        <ele>454.36</ele>
        <time>2017-11-27T13:24:19Z</time>
      </trkpt>
      <trkpt lat="44.14248" lon="5.13502">
        <ele>453.4</ele>
        <time>2017-11-27T13:24:33Z</time>
      </trkpt>
      <trkpt lat="44.14234" lon="5.13498">
        <ele>452.44</ele>
        <time>2017-11-27T13:24:46Z</time>
      </trkpt>
      <trkpt lat="44.14212" lon="5.13483">
        <ele>451</ele>
        <time>2017-11-27T13:25:05Z</time>
      </trkpt>
      <trkpt lat="44.14195" lon="5.13471">
        <ele>449.07</ele>
        <time>2017-11-27T13:25:20Z</time>
      </trkpt>
      <trkpt lat="44.14177" lon="5.13462">
        <ele>447.63</ele>
        <time>2017-11-27T13:25:35Z</time>
      </trkpt>
      <trkpt lat="44.14156" lon="5.13445">
        <ele>446.67</ele>
        <time>2017-11-27T13:25:53Z</time>
      </trkpt>
      <trkpt lat="44.14144" lon="5.13421">
        <ele>446.19</ele>
        <time>2017-11-27T13:26:09Z</time>
      </trkpt>
      <trkpt lat="44.14135" lon="5.13394">
        <ele>445.71</ele>
        <time>2017-11-27T13:26:27Z</time>
      </trkpt>
      <trkpt lat="44.14125" lon="5.13373">
        <ele>444.75</ele>
        <time>2017-11-27T13:26:41Z</time>
      </trkpt>
      <trkpt lat="44.14112" lon="5.13348">
        <ele>443.31</ele>
        <time>2017-11-27T13:26:58Z</time>
      </trkpt>
      <trkpt lat="44.14098" lon="5.13324">
        <ele>441.86</ele>
        <time>2017-11-27T13:27:17Z</time>
      </trkpt>
      <trkpt lat="44.14081" lon="5.13307">
        <ele>440.9</ele>
        <time>2017-11-27T13:27:34Z</time>
      </trkpt>
      <trkpt lat="44.14076" lon="5.13298">
        <ele>441.86</ele>
        <time>2017-11-27T13:27:41Z</time>
      </trkpt>
      <trkpt lat="44.14069" lon="5.13292">
        <ele>441.86</ele>
        <time>2017-11-27T13:27:47Z</time>
      </trkpt>
      <trkpt lat="44.14055" lon="5.13269">
        <ele>443.79</ele>
        <time>2017-11-27T13:28:04Z</time>
      </trkpt>
    </trkseg>
  </trk>
</gpx>